<?xml version="1.0" encoding="UTF-8" standalone="no" ?>
<gpx xmlns="http://www.topografix.com/GPX/1/1" xmlns:xsi="http://www.w3.org/2001/XMLSchema-instance" xsi:schemaLocation="http://www.topografix.com/GPX/1/1 http://www.topografix.com/GPX/1/1/gpx.xsd" version="1.1" creator="VisuGPX - https://www.visugpx.com">
  <metadata>
    <name>Pontcharra</name>
    <desc><![CDATA[Balade de secours ASTA du 12 juillet 2016]]></desc>
  </metadata>
  <trk>
    <name><![CDATA[12 juil. 2016 08:41:18]]></name>
    <trkseg>
      <trkpt lat="45.4237" lon="6.01467">
        <ele>353</ele>
        <time>2016-07-12T06:41:19.000Z</time>
      </trkpt>
      <trkpt lat="45.42376" lon="6.01478">
        <ele>359</ele>
        <time>2016-07-12T06:42:04.000Z</time>
      </trkpt>
      <trkpt lat="45.42385" lon="6.01486">
        <ele>358</ele>
        <time>2016-07-12T06:42:09.000Z</time>
      </trkpt>
      <trkpt lat="45.42394" lon="6.01482">
        <ele>333</ele>
        <time>2016-07-12T06:42:29.000Z</time>
      </trkpt>
      <trkpt lat="45.42402" lon="6.01488">
        <ele>332</ele>
        <time>2016-07-12T06:42:39.000Z</time>
      </trkpt>
      <trkpt lat="45.42414" lon="6.01495">
        <ele>327</ele>
        <time>2016-07-12T06:42:50.000Z</time>
      </trkpt>
      <trkpt lat="45.42421" lon="6.01505">
        <ele>326</ele>
        <time>2016-07-12T06:43:03.000Z</time>
      </trkpt>
      <trkpt lat="45.42429" lon="6.01514">
        <ele>324</ele>
        <time>2016-07-12T06:43:11.000Z</time>
      </trkpt>
      <trkpt lat="45.42436" lon="6.01522">
        <ele>323</ele>
        <time>2016-07-12T06:43:18.000Z</time>
      </trkpt>
      <trkpt lat="45.42446" lon="6.01523">
        <ele>326</ele>
        <time>2016-07-12T06:43:24.000Z</time>
      </trkpt>
      <trkpt lat="45.42454" lon="6.01531">
        <ele>330</ele>
        <time>2016-07-12T06:43:33.000Z</time>
      </trkpt>
      <trkpt lat="45.42463" lon="6.01538">
        <ele>334</ele>
        <time>2016-07-12T06:43:42.000Z</time>
      </trkpt>
      <trkpt lat="45.4247" lon="6.01546">
        <ele>332</ele>
        <time>2016-07-12T06:43:49.000Z</time>
      </trkpt>
      <trkpt lat="45.42479" lon="6.01542">
        <ele>338</ele>
        <time>2016-07-12T06:43:55.000Z</time>
      </trkpt>
      <trkpt lat="45.42486" lon="6.01553">
        <ele>342</ele>
        <time>2016-07-12T06:44:02.000Z</time>
      </trkpt>
      <trkpt lat="45.42495" lon="6.01561">
        <ele>342</ele>
        <time>2016-07-12T06:44:11.000Z</time>
      </trkpt>
      <trkpt lat="45.42502" lon="6.01569">
        <ele>345</ele>
        <time>2016-07-12T06:44:18.000Z</time>
      </trkpt>
      <trkpt lat="45.42509" lon="6.01579">
        <ele>345</ele>
        <time>2016-07-12T06:44:24.000Z</time>
      </trkpt>
      <trkpt lat="45.42518" lon="6.01579">
        <ele>344</ele>
        <time>2016-07-12T06:44:33.000Z</time>
      </trkpt>
      <trkpt lat="45.42527" lon="6.01586">
        <ele>347</ele>
        <time>2016-07-12T06:44:40.000Z</time>
      </trkpt>
      <trkpt lat="45.42535" lon="6.01591">
        <ele>349</ele>
        <time>2016-07-12T06:44:46.000Z</time>
      </trkpt>
      <trkpt lat="45.42541" lon="6.01603">
        <ele>346</ele>
        <time>2016-07-12T06:44:57.000Z</time>
      </trkpt>
      <trkpt lat="45.42548" lon="6.01612">
        <ele>343</ele>
        <time>2016-07-12T06:45:08.000Z</time>
      </trkpt>
      <trkpt lat="45.4256" lon="6.0162">
        <ele>341</ele>
        <time>2016-07-12T06:45:18.000Z</time>
      </trkpt>
      <trkpt lat="45.42568" lon="6.0163">
        <ele>341</ele>
        <time>2016-07-12T06:45:30.000Z</time>
      </trkpt>
      <trkpt lat="45.42551" lon="6.017">
        <ele>321</ele>
        <time>2016-07-12T06:46:29.000Z</time>
      </trkpt>
      <trkpt lat="45.42497" lon="6.01682">
        <ele>329</ele>
        <time>2016-07-12T06:47:32.000Z</time>
      </trkpt>
      <trkpt lat="45.42505" lon="6.01697">
        <ele>323</ele>
        <time>2016-07-12T06:48:45.000Z</time>
      </trkpt>
      <trkpt lat="45.42511" lon="6.01709">
        <ele>327</ele>
        <time>2016-07-12T06:49:05.000Z</time>
      </trkpt>
      <trkpt lat="45.42517" lon="6.01722">
        <ele>324</ele>
        <time>2016-07-12T06:49:12.000Z</time>
      </trkpt>
      <trkpt lat="45.42547" lon="6.01778">
        <ele>350</ele>
        <time>2016-07-12T06:51:33.000Z</time>
      </trkpt>
      <trkpt lat="45.42547" lon="6.01791">
        <ele>349</ele>
        <time>2016-07-12T06:51:46.000Z</time>
      </trkpt>
      <trkpt lat="45.42556" lon="6.01785">
        <ele>350</ele>
        <time>2016-07-12T06:51:52.000Z</time>
      </trkpt>
      <trkpt lat="45.42552" lon="6.01797">
        <ele>353</ele>
        <time>2016-07-12T06:52:10.000Z</time>
      </trkpt>
      <trkpt lat="45.42549" lon="6.01818">
        <ele>358</ele>
        <time>2016-07-12T06:52:47.000Z</time>
      </trkpt>
      <trkpt lat="45.42556" lon="6.01827">
        <ele>355</ele>
        <time>2016-07-12T06:52:51.000Z</time>
      </trkpt>
      <trkpt lat="45.42562" lon="6.01838">
        <ele>350</ele>
        <time>2016-07-12T06:52:59.000Z</time>
      </trkpt>
      <trkpt lat="45.42564" lon="6.01851">
        <ele>350</ele>
        <time>2016-07-12T06:53:16.000Z</time>
      </trkpt>
      <trkpt lat="45.42562" lon="6.01865">
        <ele>346</ele>
        <time>2016-07-12T06:53:44.000Z</time>
      </trkpt>
      <trkpt lat="45.42567" lon="6.01876">
        <ele>347</ele>
        <time>2016-07-12T06:53:50.000Z</time>
      </trkpt>
      <trkpt lat="45.42571" lon="6.01888">
        <ele>348</ele>
        <time>2016-07-12T06:53:55.000Z</time>
      </trkpt>
      <trkpt lat="45.42578" lon="6.01903">
        <ele>348</ele>
        <time>2016-07-12T06:54:01.000Z</time>
      </trkpt>
      <trkpt lat="45.42583" lon="6.01915">
        <ele>352</ele>
        <time>2016-07-12T06:54:17.000Z</time>
      </trkpt>
      <trkpt lat="45.42591" lon="6.01931">
        <ele>351</ele>
        <time>2016-07-12T06:54:54.000Z</time>
      </trkpt>
      <trkpt lat="45.42597" lon="6.01944">
        <ele>351</ele>
        <time>2016-07-12T06:55:03.000Z</time>
      </trkpt>
      <trkpt lat="45.42595" lon="6.01962">
        <ele>351</ele>
        <time>2016-07-12T06:55:20.000Z</time>
      </trkpt>
      <trkpt lat="45.42596" lon="6.0198">
        <ele>352</ele>
        <time>2016-07-12T06:55:28.000Z</time>
      </trkpt>
      <trkpt lat="45.42601" lon="6.02065">
        <ele>353</ele>
        <time>2016-07-12T06:56:18.000Z</time>
      </trkpt>
      <trkpt lat="45.42607" lon="6.02078">
        <ele>381</ele>
        <time>2016-07-12T06:57:17.000Z</time>
      </trkpt>
      <trkpt lat="45.42608" lon="6.02094">
        <ele>379</ele>
        <time>2016-07-12T06:57:31.000Z</time>
      </trkpt>
      <trkpt lat="45.42609" lon="6.02109">
        <ele>380</ele>
        <time>2016-07-12T06:57:37.000Z</time>
      </trkpt>
      <trkpt lat="45.42618" lon="6.0212">
        <ele>374</ele>
        <time>2016-07-12T06:57:50.000Z</time>
      </trkpt>
      <trkpt lat="45.42621" lon="6.02133">
        <ele>371</ele>
        <time>2016-07-12T06:58:03.000Z</time>
      </trkpt>
      <trkpt lat="45.42627" lon="6.02145">
        <ele>371</ele>
        <time>2016-07-12T06:58:14.000Z</time>
      </trkpt>
      <trkpt lat="45.42634" lon="6.02161">
        <ele>370</ele>
        <time>2016-07-12T06:58:27.000Z</time>
      </trkpt>
      <trkpt lat="45.4264" lon="6.02172">
        <ele>366</ele>
        <time>2016-07-12T06:58:40.000Z</time>
      </trkpt>
      <trkpt lat="45.42644" lon="6.02186">
        <ele>364</ele>
        <time>2016-07-12T06:58:52.000Z</time>
      </trkpt>
      <trkpt lat="45.42648" lon="6.02198">
        <ele>368</ele>
        <time>2016-07-12T06:59:04.000Z</time>
      </trkpt>
      <trkpt lat="45.42652" lon="6.0221">
        <ele>375</ele>
        <time>2016-07-12T06:59:35.000Z</time>
      </trkpt>
      <trkpt lat="45.42653" lon="6.02223">
        <ele>376</ele>
        <time>2016-07-12T06:59:45.000Z</time>
      </trkpt>
      <trkpt lat="45.42656" lon="6.02236">
        <ele>381</ele>
        <time>2016-07-12T06:59:56.000Z</time>
      </trkpt>
      <trkpt lat="45.42659" lon="6.02249">
        <ele>382</ele>
        <time>2016-07-12T07:00:01.000Z</time>
      </trkpt>
      <trkpt lat="45.42663" lon="6.02262">
        <ele>379</ele>
        <time>2016-07-12T07:00:10.000Z</time>
      </trkpt>
      <trkpt lat="45.4267" lon="6.02274">
        <ele>378</ele>
        <time>2016-07-12T07:00:24.000Z</time>
      </trkpt>
      <trkpt lat="45.42679" lon="6.02283">
        <ele>382</ele>
        <time>2016-07-12T07:00:32.000Z</time>
      </trkpt>
      <trkpt lat="45.42686" lon="6.02291">
        <ele>381</ele>
        <time>2016-07-12T07:00:41.000Z</time>
      </trkpt>
      <trkpt lat="45.42695" lon="6.02297">
        <ele>383</ele>
        <time>2016-07-12T07:00:49.000Z</time>
      </trkpt>
      <trkpt lat="45.42704" lon="6.02304">
        <ele>386</ele>
        <time>2016-07-12T07:00:58.000Z</time>
      </trkpt>
      <trkpt lat="45.42712" lon="6.0231">
        <ele>387</ele>
        <time>2016-07-12T07:01:07.000Z</time>
      </trkpt>
      <trkpt lat="45.42724" lon="6.0232">
        <ele>386</ele>
        <time>2016-07-12T07:01:22.000Z</time>
      </trkpt>
      <trkpt lat="45.42732" lon="6.02326">
        <ele>386</ele>
        <time>2016-07-12T07:01:33.000Z</time>
      </trkpt>
      <trkpt lat="45.42742" lon="6.02328">
        <ele>377</ele>
        <time>2016-07-12T07:01:48.000Z</time>
      </trkpt>
      <trkpt lat="45.42752" lon="6.0233">
        <ele>378</ele>
        <time>2016-07-12T07:01:57.000Z</time>
      </trkpt>
      <trkpt lat="45.4276" lon="6.02335">
        <ele>379</ele>
        <time>2016-07-12T07:02:07.000Z</time>
      </trkpt>
      <trkpt lat="45.42769" lon="6.02341">
        <ele>382</ele>
        <time>2016-07-12T07:02:18.000Z</time>
      </trkpt>
      <trkpt lat="45.42773" lon="6.02353">
        <ele>381</ele>
        <time>2016-07-12T07:02:28.000Z</time>
      </trkpt>
      <trkpt lat="45.4278" lon="6.02361">
        <ele>380</ele>
        <time>2016-07-12T07:02:36.000Z</time>
      </trkpt>
      <trkpt lat="45.42786" lon="6.02373">
        <ele>382</ele>
        <time>2016-07-12T07:02:44.000Z</time>
      </trkpt>
      <trkpt lat="45.42793" lon="6.02385">
        <ele>381</ele>
        <time>2016-07-12T07:02:56.000Z</time>
      </trkpt>
      <trkpt lat="45.42805" lon="6.02396">
        <ele>382</ele>
        <time>2016-07-12T07:03:10.000Z</time>
      </trkpt>
      <trkpt lat="45.42813" lon="6.02411">
        <ele>383</ele>
        <time>2016-07-12T07:03:25.000Z</time>
      </trkpt>
      <trkpt lat="45.42822" lon="6.02414">
        <ele>382</ele>
        <time>2016-07-12T07:03:30.000Z</time>
      </trkpt>
      <trkpt lat="45.42829" lon="6.02428">
        <ele>376</ele>
        <time>2016-07-12T07:03:48.000Z</time>
      </trkpt>
      <trkpt lat="45.42838" lon="6.02438">
        <ele>373</ele>
        <time>2016-07-12T07:04:04.000Z</time>
      </trkpt>
      <trkpt lat="45.42845" lon="6.02447">
        <ele>369</ele>
        <time>2016-07-12T07:04:17.000Z</time>
      </trkpt>
      <trkpt lat="45.42852" lon="6.02456">
        <ele>370</ele>
        <time>2016-07-12T07:04:25.000Z</time>
      </trkpt>
      <trkpt lat="45.42856" lon="6.02467">
        <ele>374</ele>
        <time>2016-07-12T07:04:31.000Z</time>
      </trkpt>
      <trkpt lat="45.42863" lon="6.02478">
        <ele>369</ele>
        <time>2016-07-12T07:04:43.000Z</time>
      </trkpt>
      <trkpt lat="45.42867" lon="6.02492">
        <ele>367</ele>
        <time>2016-07-12T07:04:54.000Z</time>
      </trkpt>
      <trkpt lat="45.42868" lon="6.02506">
        <ele>369</ele>
        <time>2016-07-12T07:05:11.000Z</time>
      </trkpt>
      <trkpt lat="45.42859" lon="6.02515">
        <ele>367</ele>
        <time>2016-07-12T07:05:23.000Z</time>
      </trkpt>
      <trkpt lat="45.42852" lon="6.02524">
        <ele>366</ele>
        <time>2016-07-12T07:05:34.000Z</time>
      </trkpt>
      <trkpt lat="45.42828" lon="6.02618">
        <ele>364</ele>
        <time>2016-07-12T07:06:30.000Z</time>
      </trkpt>
      <trkpt lat="45.42811" lon="6.02675">
        <ele>393</ele>
        <time>2016-07-12T07:07:12.000Z</time>
      </trkpt>
      <trkpt lat="45.42809" lon="6.0269">
        <ele>388</ele>
        <time>2016-07-12T07:07:38.000Z</time>
      </trkpt>
      <trkpt lat="45.42805" lon="6.02703">
        <ele>389</ele>
        <time>2016-07-12T07:07:45.000Z</time>
      </trkpt>
      <trkpt lat="45.42802" lon="6.02716">
        <ele>388</ele>
        <time>2016-07-12T07:07:59.000Z</time>
      </trkpt>
      <trkpt lat="45.42798" lon="6.0273">
        <ele>388</ele>
        <time>2016-07-12T07:08:05.000Z</time>
      </trkpt>
      <trkpt lat="45.42796" lon="6.02744">
        <ele>387</ele>
        <time>2016-07-12T07:08:26.000Z</time>
      </trkpt>
      <trkpt lat="45.42794" lon="6.02757">
        <ele>391</ele>
        <time>2016-07-12T07:08:35.000Z</time>
      </trkpt>
      <trkpt lat="45.42793" lon="6.02773">
        <ele>392</ele>
        <time>2016-07-12T07:08:52.000Z</time>
      </trkpt>
      <trkpt lat="45.42792" lon="6.02788">
        <ele>392</ele>
        <time>2016-07-12T07:09:01.000Z</time>
      </trkpt>
      <trkpt lat="45.4279" lon="6.028">
        <ele>394</ele>
        <time>2016-07-12T07:09:13.000Z</time>
      </trkpt>
      <trkpt lat="45.42789" lon="6.02814">
        <ele>396</ele>
        <time>2016-07-12T07:09:26.000Z</time>
      </trkpt>
      <trkpt lat="45.42785" lon="6.02829">
        <ele>394</ele>
        <time>2016-07-12T07:09:40.000Z</time>
      </trkpt>
      <trkpt lat="45.42778" lon="6.02842">
        <ele>395</ele>
        <time>2016-07-12T07:09:52.000Z</time>
      </trkpt>
      <trkpt lat="45.42773" lon="6.02853">
        <ele>395</ele>
        <time>2016-07-12T07:10:01.000Z</time>
      </trkpt>
      <trkpt lat="45.42762" lon="6.0285">
        <ele>395</ele>
        <time>2016-07-12T07:10:10.000Z</time>
      </trkpt>
      <trkpt lat="45.42756" lon="6.02864">
        <ele>403</ele>
        <time>2016-07-12T07:10:33.000Z</time>
      </trkpt>
      <trkpt lat="45.42756" lon="6.02877">
        <ele>411</ele>
        <time>2016-07-12T07:10:53.000Z</time>
      </trkpt>
      <trkpt lat="45.42761" lon="6.02893">
        <ele>413</ele>
        <time>2016-07-12T07:11:58.000Z</time>
      </trkpt>
      <trkpt lat="45.42767" lon="6.0291">
        <ele>415</ele>
        <time>2016-07-12T07:12:28.000Z</time>
      </trkpt>
      <trkpt lat="45.42773" lon="6.0292">
        <ele>413</ele>
        <time>2016-07-12T07:12:48.000Z</time>
      </trkpt>
      <trkpt lat="45.42782" lon="6.02921">
        <ele>412</ele>
        <time>2016-07-12T07:13:17.000Z</time>
      </trkpt>
      <trkpt lat="45.42792" lon="6.02916">
        <ele>411</ele>
        <time>2016-07-12T07:13:23.000Z</time>
      </trkpt>
      <trkpt lat="45.42807" lon="6.02921">
        <ele>422</ele>
        <time>2016-07-12T07:13:31.000Z</time>
      </trkpt>
      <trkpt lat="45.42815" lon="6.0294">
        <ele>423</ele>
        <time>2016-07-12T07:13:39.000Z</time>
      </trkpt>
      <trkpt lat="45.42828" lon="6.02944">
        <ele>422</ele>
        <time>2016-07-12T07:13:48.000Z</time>
      </trkpt>
      <trkpt lat="45.42834" lon="6.02954">
        <ele>419</ele>
        <time>2016-07-12T07:14:02.000Z</time>
      </trkpt>
      <trkpt lat="45.42843" lon="6.02963">
        <ele>422</ele>
        <time>2016-07-12T07:14:32.000Z</time>
      </trkpt>
      <trkpt lat="45.42847" lon="6.02976">
        <ele>422</ele>
        <time>2016-07-12T07:14:38.000Z</time>
      </trkpt>
      <trkpt lat="45.42856" lon="6.02978">
        <ele>425</ele>
        <time>2016-07-12T07:14:41.000Z</time>
      </trkpt>
      <trkpt lat="45.4286" lon="6.0299">
        <ele>428</ele>
        <time>2016-07-12T07:14:45.000Z</time>
      </trkpt>
      <trkpt lat="45.42868" lon="6.02996">
        <ele>428</ele>
        <time>2016-07-12T07:15:06.000Z</time>
      </trkpt>
      <trkpt lat="45.42881" lon="6.03007">
        <ele>432</ele>
        <time>2016-07-12T07:15:25.000Z</time>
      </trkpt>
      <trkpt lat="45.4289" lon="6.03">
        <ele>430</ele>
        <time>2016-07-12T07:15:30.000Z</time>
      </trkpt>
      <trkpt lat="45.42929" lon="6.03074">
        <ele>441</ele>
        <time>2016-07-12T07:17:44.000Z</time>
      </trkpt>
      <trkpt lat="45.42938" lon="6.03089">
        <ele>444</ele>
        <time>2016-07-12T07:18:03.000Z</time>
      </trkpt>
      <trkpt lat="45.42949" lon="6.03092">
        <ele>447</ele>
        <time>2016-07-12T07:18:24.000Z</time>
      </trkpt>
      <trkpt lat="45.42935" lon="6.03101">
        <ele>446</ele>
        <time>2016-07-12T07:18:28.000Z</time>
      </trkpt>
      <trkpt lat="45.42944" lon="6.03098">
        <ele>448</ele>
        <time>2016-07-12T07:18:29.000Z</time>
      </trkpt>
      <trkpt lat="45.42933" lon="6.03088">
        <ele>451</ele>
        <time>2016-07-12T07:18:39.000Z</time>
      </trkpt>
      <trkpt lat="45.42926" lon="6.03099">
        <ele>457</ele>
        <time>2016-07-12T07:18:43.000Z</time>
      </trkpt>
      <trkpt lat="45.42919" lon="6.03088">
        <ele>459</ele>
        <time>2016-07-12T07:19:03.000Z</time>
      </trkpt>
      <trkpt lat="45.4291" lon="6.03083">
        <ele>458</ele>
        <time>2016-07-12T07:20:15.000Z</time>
      </trkpt>
      <trkpt lat="45.42901" lon="6.03078">
        <ele>460</ele>
        <time>2016-07-12T07:20:28.000Z</time>
      </trkpt>
      <trkpt lat="45.42889" lon="6.03071">
        <ele>462</ele>
        <time>2016-07-12T07:20:44.000Z</time>
      </trkpt>
      <trkpt lat="45.42879" lon="6.03062">
        <ele>461</ele>
        <time>2016-07-12T07:21:01.000Z</time>
      </trkpt>
      <trkpt lat="45.42888" lon="6.03077">
        <ele>460</ele>
        <time>2016-07-12T07:21:03.000Z</time>
      </trkpt>
      <trkpt lat="45.4288" lon="6.03096">
        <ele>462</ele>
        <time>2016-07-12T07:22:36.000Z</time>
      </trkpt>
      <trkpt lat="45.42875" lon="6.03112">
        <ele>464</ele>
        <time>2016-07-12T07:22:47.000Z</time>
      </trkpt>
      <trkpt lat="45.4287" lon="6.03125">
        <ele>462</ele>
        <time>2016-07-12T07:22:51.000Z</time>
      </trkpt>
      <trkpt lat="45.42881" lon="6.03112">
        <ele>467</ele>
        <time>2016-07-12T07:22:57.000Z</time>
      </trkpt>
      <trkpt lat="45.4288" lon="6.03099">
        <ele>476</ele>
        <time>2016-07-12T07:23:17.000Z</time>
      </trkpt>
      <trkpt lat="45.42874" lon="6.03089">
        <ele>478</ele>
        <time>2016-07-12T07:26:23.000Z</time>
      </trkpt>
      <trkpt lat="45.42879" lon="6.03102">
        <ele>475</ele>
        <time>2016-07-12T07:29:23.000Z</time>
      </trkpt>
      <trkpt lat="45.42869" lon="6.031">
        <ele>474</ele>
        <time>2016-07-12T07:29:34.000Z</time>
      </trkpt>
      <trkpt lat="45.4287" lon="6.03086">
        <ele>476</ele>
        <time>2016-07-12T07:29:43.000Z</time>
      </trkpt>
      <trkpt lat="45.42874" lon="6.03075">
        <ele>477</ele>
        <time>2016-07-12T07:29:50.000Z</time>
      </trkpt>
      <trkpt lat="45.42884" lon="6.03071">
        <ele>473</ele>
        <time>2016-07-12T07:29:58.000Z</time>
      </trkpt>
      <trkpt lat="45.42893" lon="6.03062">
        <ele>470</ele>
        <time>2016-07-12T07:30:06.000Z</time>
      </trkpt>
      <trkpt lat="45.42902" lon="6.03071">
        <ele>466</ele>
        <time>2016-07-12T07:30:17.000Z</time>
      </trkpt>
      <trkpt lat="45.4291" lon="6.03078">
        <ele>468</ele>
        <time>2016-07-12T07:30:25.000Z</time>
      </trkpt>
      <trkpt lat="45.42902" lon="6.03071">
        <ele>465</ele>
        <time>2016-07-12T07:30:39.000Z</time>
      </trkpt>
      <trkpt lat="45.42895" lon="6.03061">
        <ele>467</ele>
        <time>2016-07-12T07:30:48.000Z</time>
      </trkpt>
      <trkpt lat="45.42888" lon="6.03052">
        <ele>467</ele>
        <time>2016-07-12T07:30:55.000Z</time>
      </trkpt>
      <trkpt lat="45.42878" lon="6.0305">
        <ele>463</ele>
        <time>2016-07-12T07:31:05.000Z</time>
      </trkpt>
      <trkpt lat="45.42872" lon="6.03042">
        <ele>463</ele>
        <time>2016-07-12T07:31:11.000Z</time>
      </trkpt>
      <trkpt lat="45.42862" lon="6.03037">
        <ele>461</ele>
        <time>2016-07-12T07:31:25.000Z</time>
      </trkpt>
      <trkpt lat="45.42856" lon="6.03024">
        <ele>460</ele>
        <time>2016-07-12T07:31:27.000Z</time>
      </trkpt>
      <trkpt lat="45.42845" lon="6.03021">
        <ele>456</ele>
        <time>2016-07-12T07:31:35.000Z</time>
      </trkpt>
      <trkpt lat="45.42833" lon="6.03015">
        <ele>456</ele>
        <time>2016-07-12T07:31:48.000Z</time>
      </trkpt>
      <trkpt lat="45.42822" lon="6.0301">
        <ele>456</ele>
        <time>2016-07-12T07:32:02.000Z</time>
      </trkpt>
      <trkpt lat="45.4281" lon="6.03013">
        <ele>449</ele>
        <time>2016-07-12T07:32:17.000Z</time>
      </trkpt>
      <trkpt lat="45.42801" lon="6.03029">
        <ele>446</ele>
        <time>2016-07-12T07:32:26.000Z</time>
      </trkpt>
      <trkpt lat="45.42802" lon="6.03003">
        <ele>444</ele>
        <time>2016-07-12T07:32:31.000Z</time>
      </trkpt>
      <trkpt lat="45.42793" lon="6.03016">
        <ele>443</ele>
        <time>2016-07-12T07:32:34.000Z</time>
      </trkpt>
      <trkpt lat="45.42787" lon="6.03026">
        <ele>444</ele>
        <time>2016-07-12T07:32:37.000Z</time>
      </trkpt>
      <trkpt lat="45.42777" lon="6.03032">
        <ele>451</ele>
        <time>2016-07-12T07:32:43.000Z</time>
      </trkpt>
      <trkpt lat="45.42769" lon="6.03039">
        <ele>449</ele>
        <time>2016-07-12T07:32:50.000Z</time>
      </trkpt>
      <trkpt lat="45.42759" lon="6.03043">
        <ele>447</ele>
        <time>2016-07-12T07:33:02.000Z</time>
      </trkpt>
      <trkpt lat="45.42748" lon="6.03049">
        <ele>444</ele>
        <time>2016-07-12T07:33:14.000Z</time>
      </trkpt>
      <trkpt lat="45.42737" lon="6.0306">
        <ele>445</ele>
        <time>2016-07-12T07:33:24.000Z</time>
      </trkpt>
      <trkpt lat="45.42726" lon="6.0307">
        <ele>450</ele>
        <time>2016-07-12T07:33:34.000Z</time>
      </trkpt>
      <trkpt lat="45.42719" lon="6.03082">
        <ele>443</ele>
        <time>2016-07-12T07:33:44.000Z</time>
      </trkpt>
      <trkpt lat="45.42712" lon="6.03095">
        <ele>445</ele>
        <time>2016-07-12T07:33:54.000Z</time>
      </trkpt>
      <trkpt lat="45.42706" lon="6.03109">
        <ele>445</ele>
        <time>2016-07-12T07:34:00.000Z</time>
      </trkpt>
      <trkpt lat="45.427" lon="6.03121">
        <ele>439</ele>
        <time>2016-07-12T07:34:14.000Z</time>
      </trkpt>
      <trkpt lat="45.42695" lon="6.03134">
        <ele>441</ele>
        <time>2016-07-12T07:34:22.000Z</time>
      </trkpt>
      <trkpt lat="45.4269" lon="6.03147">
        <ele>441</ele>
        <time>2016-07-12T07:34:26.000Z</time>
      </trkpt>
      <trkpt lat="45.42685" lon="6.03161">
        <ele>437</ele>
        <time>2016-07-12T07:34:39.000Z</time>
      </trkpt>
      <trkpt lat="45.42681" lon="6.03173">
        <ele>436</ele>
        <time>2016-07-12T07:34:44.000Z</time>
      </trkpt>
      <trkpt lat="45.42682" lon="6.03187">
        <ele>440</ele>
        <time>2016-07-12T07:35:08.000Z</time>
      </trkpt>
      <trkpt lat="45.42682" lon="6.032">
        <ele>438</ele>
        <time>2016-07-12T07:35:26.000Z</time>
      </trkpt>
      <trkpt lat="45.42687" lon="6.0321">
        <ele>439</ele>
        <time>2016-07-12T07:35:34.000Z</time>
      </trkpt>
      <trkpt lat="45.42692" lon="6.03225">
        <ele>440</ele>
        <time>2016-07-12T07:35:45.000Z</time>
      </trkpt>
      <trkpt lat="45.42699" lon="6.03236">
        <ele>440</ele>
        <time>2016-07-12T07:36:00.000Z</time>
      </trkpt>
      <trkpt lat="45.42712" lon="6.03251">
        <ele>437</ele>
        <time>2016-07-12T07:36:14.000Z</time>
      </trkpt>
      <trkpt lat="45.42719" lon="6.03259">
        <ele>438</ele>
        <time>2016-07-12T07:36:19.000Z</time>
      </trkpt>
      <trkpt lat="45.42731" lon="6.03263">
        <ele>442</ele>
        <time>2016-07-12T07:36:25.000Z</time>
      </trkpt>
      <trkpt lat="45.42743" lon="6.03268">
        <ele>447</ele>
        <time>2016-07-12T07:36:36.000Z</time>
      </trkpt>
      <trkpt lat="45.42753" lon="6.03274">
        <ele>448</ele>
        <time>2016-07-12T07:36:40.000Z</time>
      </trkpt>
      <trkpt lat="45.42763" lon="6.03279">
        <ele>448</ele>
        <time>2016-07-12T07:36:48.000Z</time>
      </trkpt>
      <trkpt lat="45.42773" lon="6.03279">
        <ele>447</ele>
        <time>2016-07-12T07:37:01.000Z</time>
      </trkpt>
      <trkpt lat="45.42785" lon="6.03276">
        <ele>446</ele>
        <time>2016-07-12T07:37:17.000Z</time>
      </trkpt>
      <trkpt lat="45.42796" lon="6.0328">
        <ele>446</ele>
        <time>2016-07-12T07:37:27.000Z</time>
      </trkpt>
      <trkpt lat="45.42807" lon="6.03284">
        <ele>447</ele>
        <time>2016-07-12T07:37:38.000Z</time>
      </trkpt>
      <trkpt lat="45.42814" lon="6.03292">
        <ele>449</ele>
        <time>2016-07-12T07:37:45.000Z</time>
      </trkpt>
      <trkpt lat="45.42821" lon="6.03301">
        <ele>448</ele>
        <time>2016-07-12T07:37:54.000Z</time>
      </trkpt>
      <trkpt lat="45.4283" lon="6.03307">
        <ele>450</ele>
        <time>2016-07-12T07:38:00.000Z</time>
      </trkpt>
      <trkpt lat="45.42836" lon="6.03317">
        <ele>448</ele>
        <time>2016-07-12T07:38:08.000Z</time>
      </trkpt>
      <trkpt lat="45.42842" lon="6.03328">
        <ele>447</ele>
        <time>2016-07-12T07:38:17.000Z</time>
      </trkpt>
      <trkpt lat="45.42846" lon="6.03339">
        <ele>446</ele>
        <time>2016-07-12T07:38:30.000Z</time>
      </trkpt>
      <trkpt lat="45.42851" lon="6.03352">
        <ele>445</ele>
        <time>2016-07-12T07:38:45.000Z</time>
      </trkpt>
      <trkpt lat="45.42857" lon="6.03363">
        <ele>443</ele>
        <time>2016-07-12T07:38:53.000Z</time>
      </trkpt>
      <trkpt lat="45.4286" lon="6.03375">
        <ele>435</ele>
        <time>2016-07-12T07:39:02.000Z</time>
      </trkpt>
      <trkpt lat="45.42872" lon="6.03385">
        <ele>438</ele>
        <time>2016-07-12T07:39:10.000Z</time>
      </trkpt>
      <trkpt lat="45.42883" lon="6.03393">
        <ele>440</ele>
        <time>2016-07-12T07:39:19.000Z</time>
      </trkpt>
      <trkpt lat="45.42894" lon="6.03397">
        <ele>440</ele>
        <time>2016-07-12T07:39:27.000Z</time>
      </trkpt>
      <trkpt lat="45.42899" lon="6.03409">
        <ele>444</ele>
        <time>2016-07-12T07:39:59.000Z</time>
      </trkpt>
      <trkpt lat="45.42865" lon="6.0343">
        <ele>433</ele>
        <time>2016-07-12T07:43:42.000Z</time>
      </trkpt>
      <trkpt lat="45.42865" lon="6.03455">
        <ele>433</ele>
        <time>2016-07-12T07:43:49.000Z</time>
      </trkpt>
      <trkpt lat="45.4286" lon="6.03473">
        <ele>433</ele>
        <time>2016-07-12T07:43:54.000Z</time>
      </trkpt>
      <trkpt lat="45.42853" lon="6.03487">
        <ele>433</ele>
        <time>2016-07-12T07:44:00.000Z</time>
      </trkpt>
      <trkpt lat="45.42844" lon="6.03515">
        <ele>436</ele>
        <time>2016-07-12T07:44:20.000Z</time>
      </trkpt>
      <trkpt lat="45.4284" lon="6.0353">
        <ele>437</ele>
        <time>2016-07-12T07:44:24.000Z</time>
      </trkpt>
      <trkpt lat="45.42838" lon="6.03544">
        <ele>440</ele>
        <time>2016-07-12T07:44:37.000Z</time>
      </trkpt>
      <trkpt lat="45.42831" lon="6.03555">
        <ele>439</ele>
        <time>2016-07-12T07:44:42.000Z</time>
      </trkpt>
      <trkpt lat="45.42828" lon="6.03568">
        <ele>438</ele>
        <time>2016-07-12T07:44:53.000Z</time>
      </trkpt>
      <trkpt lat="45.42819" lon="6.03583">
        <ele>438</ele>
        <time>2016-07-12T07:45:03.000Z</time>
      </trkpt>
      <trkpt lat="45.42815" lon="6.036">
        <ele>441</ele>
        <time>2016-07-12T07:45:11.000Z</time>
      </trkpt>
      <trkpt lat="45.42809" lon="6.03614">
        <ele>438</ele>
        <time>2016-07-12T07:45:24.000Z</time>
      </trkpt>
      <trkpt lat="45.42807" lon="6.03629">
        <ele>439</ele>
        <time>2016-07-12T07:45:32.000Z</time>
      </trkpt>
      <trkpt lat="45.42798" lon="6.03668">
        <ele>438</ele>
        <time>2016-07-12T07:46:34.000Z</time>
      </trkpt>
      <trkpt lat="45.42795" lon="6.0368">
        <ele>437</ele>
        <time>2016-07-12T07:46:37.000Z</time>
      </trkpt>
      <trkpt lat="45.42795" lon="6.03694">
        <ele>434</ele>
        <time>2016-07-12T07:46:49.000Z</time>
      </trkpt>
      <trkpt lat="45.42796" lon="6.0371">
        <ele>442</ele>
        <time>2016-07-12T07:46:54.000Z</time>
      </trkpt>
      <trkpt lat="45.42786" lon="6.03706">
        <ele>446</ele>
        <time>2016-07-12T07:47:06.000Z</time>
      </trkpt>
      <trkpt lat="45.42779" lon="6.03697">
        <ele>447</ele>
        <time>2016-07-12T07:47:17.000Z</time>
      </trkpt>
      <trkpt lat="45.42772" lon="6.03706">
        <ele>444</ele>
        <time>2016-07-12T07:47:27.000Z</time>
      </trkpt>
      <trkpt lat="45.42762" lon="6.0371">
        <ele>446</ele>
        <time>2016-07-12T07:47:39.000Z</time>
      </trkpt>
      <trkpt lat="45.42749" lon="6.0372">
        <ele>442</ele>
        <time>2016-07-12T07:47:52.000Z</time>
      </trkpt>
      <trkpt lat="45.42738" lon="6.03716">
        <ele>446</ele>
        <time>2016-07-12T07:48:00.000Z</time>
      </trkpt>
      <trkpt lat="45.42728" lon="6.03716">
        <ele>446</ele>
        <time>2016-07-12T07:48:10.000Z</time>
      </trkpt>
      <trkpt lat="45.42718" lon="6.03715">
        <ele>446</ele>
        <time>2016-07-12T07:48:18.000Z</time>
      </trkpt>
      <trkpt lat="45.42707" lon="6.03717">
        <ele>443</ele>
        <time>2016-07-12T07:48:31.000Z</time>
      </trkpt>
      <trkpt lat="45.42697" lon="6.03717">
        <ele>444</ele>
        <time>2016-07-12T07:48:39.000Z</time>
      </trkpt>
      <trkpt lat="45.42693" lon="6.03728">
        <ele>447</ele>
        <time>2016-07-12T07:48:48.000Z</time>
      </trkpt>
      <trkpt lat="45.42682" lon="6.03736">
        <ele>452</ele>
        <time>2016-07-12T07:48:55.000Z</time>
      </trkpt>
      <trkpt lat="45.42673" lon="6.03744">
        <ele>452</ele>
        <time>2016-07-12T07:49:09.000Z</time>
      </trkpt>
      <trkpt lat="45.42664" lon="6.03752">
        <ele>453</ele>
        <time>2016-07-12T07:49:19.000Z</time>
      </trkpt>
      <trkpt lat="45.42655" lon="6.03758">
        <ele>455</ele>
        <time>2016-07-12T07:49:29.000Z</time>
      </trkpt>
      <trkpt lat="45.42646" lon="6.03758">
        <ele>455</ele>
        <time>2016-07-12T07:49:40.000Z</time>
      </trkpt>
      <trkpt lat="45.42639" lon="6.03769">
        <ele>453</ele>
        <time>2016-07-12T07:49:45.000Z</time>
      </trkpt>
      <trkpt lat="45.42635" lon="6.03788">
        <ele>456</ele>
        <time>2016-07-12T07:50:01.000Z</time>
      </trkpt>
      <trkpt lat="45.42629" lon="6.03805">
        <ele>454</ele>
        <time>2016-07-12T07:50:04.000Z</time>
      </trkpt>
      <trkpt lat="45.42631" lon="6.03819">
        <ele>460</ele>
        <time>2016-07-12T07:50:23.000Z</time>
      </trkpt>
      <trkpt lat="45.42639" lon="6.03826">
        <ele>466</ele>
        <time>2016-07-12T07:50:34.000Z</time>
      </trkpt>
      <trkpt lat="45.4263" lon="6.03829">
        <ele>459</ele>
        <time>2016-07-12T07:50:39.000Z</time>
      </trkpt>
      <trkpt lat="45.42618" lon="6.03908">
        <ele>485</ele>
        <time>2016-07-12T07:57:44.000Z</time>
      </trkpt>
      <trkpt lat="45.42629" lon="6.03906">
        <ele>486</ele>
        <time>2016-07-12T07:57:51.000Z</time>
      </trkpt>
      <trkpt lat="45.42615" lon="6.03903">
        <ele>461</ele>
        <time>2016-07-12T07:57:56.000Z</time>
      </trkpt>
      <trkpt lat="45.4262" lon="6.0389">
        <ele>467</ele>
        <time>2016-07-12T07:58:13.000Z</time>
      </trkpt>
      <trkpt lat="45.42622" lon="6.03873">
        <ele>464</ele>
        <time>2016-07-12T07:58:26.000Z</time>
      </trkpt>
      <trkpt lat="45.42627" lon="6.03861">
        <ele>466</ele>
        <time>2016-07-12T07:58:40.000Z</time>
      </trkpt>
      <trkpt lat="45.42631" lon="6.03848">
        <ele>467</ele>
        <time>2016-07-12T07:58:52.000Z</time>
      </trkpt>
      <trkpt lat="45.42636" lon="6.03836">
        <ele>467</ele>
        <time>2016-07-12T07:59:08.000Z</time>
      </trkpt>
      <trkpt lat="45.42635" lon="6.0382">
        <ele>463</ele>
        <time>2016-07-12T07:59:20.000Z</time>
      </trkpt>
      <trkpt lat="45.42636" lon="6.03806">
        <ele>463</ele>
        <time>2016-07-12T07:59:26.000Z</time>
      </trkpt>
      <trkpt lat="45.42632" lon="6.03823">
        <ele>461</ele>
        <time>2016-07-12T07:59:51.000Z</time>
      </trkpt>
      <trkpt lat="45.42638" lon="6.03833">
        <ele>460</ele>
        <time>2016-07-12T07:59:55.000Z</time>
      </trkpt>
      <trkpt lat="45.42643" lon="6.03845">
        <ele>463</ele>
        <time>2016-07-12T08:00:04.000Z</time>
      </trkpt>
      <trkpt lat="45.42647" lon="6.03857">
        <ele>465</ele>
        <time>2016-07-12T08:00:12.000Z</time>
      </trkpt>
      <trkpt lat="45.42638" lon="6.03871">
        <ele>462</ele>
        <time>2016-07-12T08:00:29.000Z</time>
      </trkpt>
      <trkpt lat="45.42617" lon="6.03946">
        <ele>460</ele>
        <time>2016-07-12T08:01:53.000Z</time>
      </trkpt>
      <trkpt lat="45.42625" lon="6.03953">
        <ele>480</ele>
        <time>2016-07-12T08:02:34.000Z</time>
      </trkpt>
      <trkpt lat="45.42469" lon="6.04152">
        <ele>533</ele>
        <time>2016-07-12T08:09:56.000Z</time>
      </trkpt>
      <trkpt lat="45.42459" lon="6.0422">
        <ele>550</ele>
        <time>2016-07-12T08:11:57.000Z</time>
      </trkpt>
      <trkpt lat="45.4245" lon="6.04221">
        <ele>542</ele>
        <time>2016-07-12T08:12:01.000Z</time>
      </trkpt>
      <trkpt lat="45.42455" lon="6.04234">
        <ele>548</ele>
        <time>2016-07-12T08:12:16.000Z</time>
      </trkpt>
      <trkpt lat="45.42452" lon="6.04249">
        <ele>548</ele>
        <time>2016-07-12T08:14:00.000Z</time>
      </trkpt>
      <trkpt lat="45.42449" lon="6.04261">
        <ele>549</ele>
        <time>2016-07-12T08:14:09.000Z</time>
      </trkpt>
      <trkpt lat="45.42445" lon="6.04275">
        <ele>553</ele>
        <time>2016-07-12T08:14:18.000Z</time>
      </trkpt>
      <trkpt lat="45.42433" lon="6.04295">
        <ele>561</ele>
        <time>2016-07-12T08:14:28.000Z</time>
      </trkpt>
      <trkpt lat="45.42429" lon="6.04307">
        <ele>567</ele>
        <time>2016-07-12T08:14:45.000Z</time>
      </trkpt>
      <trkpt lat="45.42431" lon="6.0432">
        <ele>572</ele>
        <time>2016-07-12T08:15:20.000Z</time>
      </trkpt>
      <trkpt lat="45.42425" lon="6.0433">
        <ele>569</ele>
        <time>2016-07-12T08:15:30.000Z</time>
      </trkpt>
      <trkpt lat="45.42423" lon="6.04345">
        <ele>573</ele>
        <time>2016-07-12T08:15:35.000Z</time>
      </trkpt>
      <trkpt lat="45.42413" lon="6.04348">
        <ele>574</ele>
        <time>2016-07-12T08:15:48.000Z</time>
      </trkpt>
      <trkpt lat="45.42403" lon="6.04349">
        <ele>572</ele>
        <time>2016-07-12T08:15:55.000Z</time>
      </trkpt>
      <trkpt lat="45.42412" lon="6.04354">
        <ele>571</ele>
        <time>2016-07-12T08:16:05.000Z</time>
      </trkpt>
      <trkpt lat="45.42418" lon="6.04363">
        <ele>584</ele>
        <time>2016-07-12T08:28:09.000Z</time>
      </trkpt>
      <trkpt lat="45.42413" lon="6.04374">
        <ele>582</ele>
        <time>2016-07-12T08:30:40.000Z</time>
      </trkpt>
      <trkpt lat="45.42403" lon="6.04376">
        <ele>584</ele>
        <time>2016-07-12T08:31:09.000Z</time>
      </trkpt>
      <trkpt lat="45.42396" lon="6.04387">
        <ele>581</ele>
        <time>2016-07-12T08:31:16.000Z</time>
      </trkpt>
      <trkpt lat="45.42396" lon="6.04403">
        <ele>584</ele>
        <time>2016-07-12T08:31:22.000Z</time>
      </trkpt>
      <trkpt lat="45.42386" lon="6.04403">
        <ele>584</ele>
        <time>2016-07-12T08:31:29.000Z</time>
      </trkpt>
      <trkpt lat="45.42377" lon="6.04407">
        <ele>582</ele>
        <time>2016-07-12T08:31:39.000Z</time>
      </trkpt>
      <trkpt lat="45.42367" lon="6.04407">
        <ele>584</ele>
        <time>2016-07-12T08:31:47.000Z</time>
      </trkpt>
      <trkpt lat="45.42358" lon="6.044">
        <ele>584</ele>
        <time>2016-07-12T08:32:27.000Z</time>
      </trkpt>
      <trkpt lat="45.42362" lon="6.04388">
        <ele>589</ele>
        <time>2016-07-12T08:32:46.000Z</time>
      </trkpt>
      <trkpt lat="45.4236" lon="6.04375">
        <ele>591</ele>
        <time>2016-07-12T08:33:00.000Z</time>
      </trkpt>
      <trkpt lat="45.42369" lon="6.04369">
        <ele>592</ele>
        <time>2016-07-12T08:33:11.000Z</time>
      </trkpt>
      <trkpt lat="45.42367" lon="6.04356">
        <ele>596</ele>
        <time>2016-07-12T08:33:23.000Z</time>
      </trkpt>
      <trkpt lat="45.42362" lon="6.04345">
        <ele>597</ele>
        <time>2016-07-12T08:33:33.000Z</time>
      </trkpt>
      <trkpt lat="45.42364" lon="6.0433">
        <ele>597</ele>
        <time>2016-07-12T08:33:46.000Z</time>
      </trkpt>
      <trkpt lat="45.42372" lon="6.04319">
        <ele>598</ele>
        <time>2016-07-12T08:33:56.000Z</time>
      </trkpt>
      <trkpt lat="45.42363" lon="6.0431">
        <ele>598</ele>
        <time>2016-07-12T08:34:11.000Z</time>
      </trkpt>
      <trkpt lat="45.42361" lon="6.04293">
        <ele>593</ele>
        <time>2016-07-12T08:34:31.000Z</time>
      </trkpt>
      <trkpt lat="45.42358" lon="6.04281">
        <ele>592</ele>
        <time>2016-07-12T08:34:43.000Z</time>
      </trkpt>
      <trkpt lat="45.42362" lon="6.04267">
        <ele>594</ele>
        <time>2016-07-12T08:34:55.000Z</time>
      </trkpt>
      <trkpt lat="45.42359" lon="6.04253">
        <ele>595</ele>
        <time>2016-07-12T08:35:19.000Z</time>
      </trkpt>
      <trkpt lat="45.42353" lon="6.04241">
        <ele>595</ele>
        <time>2016-07-12T08:35:32.000Z</time>
      </trkpt>
      <trkpt lat="45.42346" lon="6.04225">
        <ele>590</ele>
        <time>2016-07-12T08:35:49.000Z</time>
      </trkpt>
      <trkpt lat="45.42347" lon="6.04209">
        <ele>586</ele>
        <time>2016-07-12T08:36:03.000Z</time>
      </trkpt>
      <trkpt lat="45.42339" lon="6.04208">
        <ele>584</ele>
        <time>2016-07-12T08:36:19.000Z</time>
      </trkpt>
      <trkpt lat="45.4234" lon="6.04194">
        <ele>584</ele>
        <time>2016-07-12T08:36:57.000Z</time>
      </trkpt>
      <trkpt lat="45.42333" lon="6.04185">
        <ele>581</ele>
        <time>2016-07-12T08:36:59.000Z</time>
      </trkpt>
      <trkpt lat="45.42331" lon="6.04168">
        <ele>582</ele>
        <time>2016-07-12T08:37:05.000Z</time>
      </trkpt>
      <trkpt lat="45.42321" lon="6.04162">
        <ele>577</ele>
        <time>2016-07-12T08:37:10.000Z</time>
      </trkpt>
      <trkpt lat="45.42322" lon="6.04144">
        <ele>582</ele>
        <time>2016-07-12T08:37:19.000Z</time>
      </trkpt>
      <trkpt lat="45.42314" lon="6.04137">
        <ele>578</ele>
        <time>2016-07-12T08:37:25.000Z</time>
      </trkpt>
      <trkpt lat="45.42309" lon="6.04122">
        <ele>577</ele>
        <time>2016-07-12T08:37:37.000Z</time>
      </trkpt>
      <trkpt lat="45.42307" lon="6.04108">
        <ele>581</ele>
        <time>2016-07-12T08:37:46.000Z</time>
      </trkpt>
      <trkpt lat="45.42304" lon="6.04095">
        <ele>582</ele>
        <time>2016-07-12T08:38:01.000Z</time>
      </trkpt>
      <trkpt lat="45.42296" lon="6.04077">
        <ele>578</ele>
        <time>2016-07-12T08:38:23.000Z</time>
      </trkpt>
      <trkpt lat="45.42285" lon="6.04074">
        <ele>578</ele>
        <time>2016-07-12T08:38:31.000Z</time>
      </trkpt>
      <trkpt lat="45.42275" lon="6.04063">
        <ele>580</ele>
        <time>2016-07-12T08:38:44.000Z</time>
      </trkpt>
      <trkpt lat="45.42265" lon="6.04049">
        <ele>581</ele>
        <time>2016-07-12T08:39:17.000Z</time>
      </trkpt>
      <trkpt lat="45.4225" lon="6.0404">
        <ele>585</ele>
        <time>2016-07-12T08:39:24.000Z</time>
      </trkpt>
      <trkpt lat="45.42246" lon="6.04029">
        <ele>587</ele>
        <time>2016-07-12T08:39:32.000Z</time>
      </trkpt>
      <trkpt lat="45.42246" lon="6.04045">
        <ele>587</ele>
        <time>2016-07-12T08:40:11.000Z</time>
      </trkpt>
      <trkpt lat="45.42246" lon="6.04059">
        <ele>587</ele>
        <time>2016-07-12T08:40:28.000Z</time>
      </trkpt>
      <trkpt lat="45.42244" lon="6.04072">
        <ele>595</ele>
        <time>2016-07-12T08:40:57.000Z</time>
      </trkpt>
      <trkpt lat="45.4225" lon="6.04086">
        <ele>601</ele>
        <time>2016-07-12T08:41:54.000Z</time>
      </trkpt>
      <trkpt lat="45.42249" lon="6.04099">
        <ele>598</ele>
        <time>2016-07-12T08:41:58.000Z</time>
      </trkpt>
      <trkpt lat="45.42248" lon="6.04113">
        <ele>598</ele>
        <time>2016-07-12T08:42:08.000Z</time>
      </trkpt>
      <trkpt lat="45.42251" lon="6.04125">
        <ele>601</ele>
        <time>2016-07-12T08:42:25.000Z</time>
      </trkpt>
      <trkpt lat="45.42247" lon="6.04138">
        <ele>598</ele>
        <time>2016-07-12T08:42:59.000Z</time>
      </trkpt>
      <trkpt lat="45.42245" lon="6.04152">
        <ele>599</ele>
        <time>2016-07-12T08:43:30.000Z</time>
      </trkpt>
      <trkpt lat="45.42253" lon="6.0416">
        <ele>608</ele>
        <time>2016-07-12T08:43:45.000Z</time>
      </trkpt>
      <trkpt lat="45.42252" lon="6.04174">
        <ele>617</ele>
        <time>2016-07-12T08:44:04.000Z</time>
      </trkpt>
      <trkpt lat="45.42254" lon="6.04187">
        <ele>620</ele>
        <time>2016-07-12T08:44:24.000Z</time>
      </trkpt>
      <trkpt lat="45.42249" lon="6.04199">
        <ele>616</ele>
        <time>2016-07-12T08:44:36.000Z</time>
      </trkpt>
      <trkpt lat="45.42255" lon="6.04211">
        <ele>623</ele>
        <time>2016-07-12T08:44:56.000Z</time>
      </trkpt>
      <trkpt lat="45.42256" lon="6.04224">
        <ele>627</ele>
        <time>2016-07-12T08:45:44.000Z</time>
      </trkpt>
      <trkpt lat="45.42251" lon="6.04235">
        <ele>625</ele>
        <time>2016-07-12T08:45:54.000Z</time>
      </trkpt>
      <trkpt lat="45.42252" lon="6.04248">
        <ele>632</ele>
        <time>2016-07-12T08:46:14.000Z</time>
      </trkpt>
      <trkpt lat="45.42254" lon="6.04261">
        <ele>634</ele>
        <time>2016-07-12T08:46:41.000Z</time>
      </trkpt>
      <trkpt lat="45.42252" lon="6.04274">
        <ele>637</ele>
        <time>2016-07-12T08:46:54.000Z</time>
      </trkpt>
      <trkpt lat="45.4225" lon="6.0429">
        <ele>640</ele>
        <time>2016-07-12T08:47:06.000Z</time>
      </trkpt>
      <trkpt lat="45.42245" lon="6.04301">
        <ele>641</ele>
        <time>2016-07-12T08:47:15.000Z</time>
      </trkpt>
      <trkpt lat="45.42242" lon="6.04313">
        <ele>640</ele>
        <time>2016-07-12T08:47:42.000Z</time>
      </trkpt>
      <trkpt lat="45.42236" lon="6.04322">
        <ele>641</ele>
        <time>2016-07-12T08:47:53.000Z</time>
      </trkpt>
      <trkpt lat="45.42232" lon="6.04334">
        <ele>640</ele>
        <time>2016-07-12T08:48:08.000Z</time>
      </trkpt>
      <trkpt lat="45.42225" lon="6.04341">
        <ele>637</ele>
        <time>2016-07-12T08:48:21.000Z</time>
      </trkpt>
      <trkpt lat="45.42222" lon="6.04354">
        <ele>639</ele>
        <time>2016-07-12T08:48:35.000Z</time>
      </trkpt>
      <trkpt lat="45.42214" lon="6.04367">
        <ele>639</ele>
        <time>2016-07-12T08:48:59.000Z</time>
      </trkpt>
      <trkpt lat="45.42221" lon="6.04377">
        <ele>652</ele>
        <time>2016-07-12T08:49:15.000Z</time>
      </trkpt>
      <trkpt lat="45.42218" lon="6.04391">
        <ele>652</ele>
        <time>2016-07-12T08:49:42.000Z</time>
      </trkpt>
      <trkpt lat="45.42207" lon="6.04402">
        <ele>652</ele>
        <time>2016-07-12T08:49:56.000Z</time>
      </trkpt>
      <trkpt lat="45.42202" lon="6.04413">
        <ele>665</ele>
        <time>2016-07-12T08:53:53.000Z</time>
      </trkpt>
      <trkpt lat="45.42191" lon="6.04413">
        <ele>669</ele>
        <time>2016-07-12T08:54:30.000Z</time>
      </trkpt>
      <trkpt lat="45.4218" lon="6.04414">
        <ele>671</ele>
        <time>2016-07-12T08:54:40.000Z</time>
      </trkpt>
      <trkpt lat="45.4217" lon="6.04414">
        <ele>681</ele>
        <time>2016-07-12T08:55:50.000Z</time>
      </trkpt>
      <trkpt lat="45.42156" lon="6.04415">
        <ele>685</ele>
        <time>2016-07-12T08:56:38.000Z</time>
      </trkpt>
      <trkpt lat="45.42146" lon="6.04418">
        <ele>689</ele>
        <time>2016-07-12T08:56:54.000Z</time>
      </trkpt>
      <trkpt lat="45.42135" lon="6.04421">
        <ele>692</ele>
        <time>2016-07-12T08:57:14.000Z</time>
      </trkpt>
      <trkpt lat="45.42125" lon="6.04419">
        <ele>700</ele>
        <time>2016-07-12T08:57:41.000Z</time>
      </trkpt>
      <trkpt lat="45.42106" lon="6.04417">
        <ele>697</ele>
        <time>2016-07-12T08:58:04.000Z</time>
      </trkpt>
      <trkpt lat="45.42094" lon="6.04426">
        <ele>700</ele>
        <time>2016-07-12T08:58:53.000Z</time>
      </trkpt>
      <trkpt lat="45.42084" lon="6.0443">
        <ele>708</ele>
        <time>2016-07-12T08:59:15.000Z</time>
      </trkpt>
      <trkpt lat="45.42073" lon="6.0443">
        <ele>712</ele>
        <time>2016-07-12T08:59:53.000Z</time>
      </trkpt>
      <trkpt lat="45.4206" lon="6.04426">
        <ele>714</ele>
        <time>2016-07-12T09:00:01.000Z</time>
      </trkpt>
      <trkpt lat="45.42051" lon="6.04425">
        <ele>710</ele>
        <time>2016-07-12T09:00:19.000Z</time>
      </trkpt>
      <trkpt lat="45.42035" lon="6.04433">
        <ele>724</ele>
        <time>2016-07-12T09:01:24.000Z</time>
      </trkpt>
      <trkpt lat="45.42025" lon="6.04432">
        <ele>723</ele>
        <time>2016-07-12T09:01:28.000Z</time>
      </trkpt>
      <trkpt lat="45.42017" lon="6.04441">
        <ele>725</ele>
        <time>2016-07-12T09:01:41.000Z</time>
      </trkpt>
      <trkpt lat="45.42003" lon="6.04445">
        <ele>726</ele>
        <time>2016-07-12T09:02:16.000Z</time>
      </trkpt>
      <trkpt lat="45.41995" lon="6.04452">
        <ele>724</ele>
        <time>2016-07-12T09:02:24.000Z</time>
      </trkpt>
      <trkpt lat="45.4199" lon="6.04463">
        <ele>721</ele>
        <time>2016-07-12T09:02:41.000Z</time>
      </trkpt>
      <trkpt lat="45.41979" lon="6.04469">
        <ele>726</ele>
        <time>2016-07-12T09:03:21.000Z</time>
      </trkpt>
      <trkpt lat="45.41981" lon="6.04456">
        <ele>747</ele>
        <time>2016-07-12T09:08:09.000Z</time>
      </trkpt>
      <trkpt lat="45.41987" lon="6.04439">
        <ele>744</ele>
        <time>2016-07-12T09:08:20.000Z</time>
      </trkpt>
      <trkpt lat="45.41989" lon="6.04423">
        <ele>746</ele>
        <time>2016-07-12T09:08:33.000Z</time>
      </trkpt>
      <trkpt lat="45.41995" lon="6.0441">
        <ele>748</ele>
        <time>2016-07-12T09:08:44.000Z</time>
      </trkpt>
      <trkpt lat="45.42006" lon="6.04395">
        <ele>750</ele>
        <time>2016-07-12T09:09:01.000Z</time>
      </trkpt>
      <trkpt lat="45.42009" lon="6.04383">
        <ele>752</ele>
        <time>2016-07-12T09:09:07.000Z</time>
      </trkpt>
      <trkpt lat="45.42017" lon="6.0437">
        <ele>752</ele>
        <time>2016-07-12T09:09:19.000Z</time>
      </trkpt>
      <trkpt lat="45.42026" lon="6.04362">
        <ele>747</ele>
        <time>2016-07-12T09:09:29.000Z</time>
      </trkpt>
      <trkpt lat="45.42032" lon="6.04351">
        <ele>748</ele>
        <time>2016-07-12T09:09:42.000Z</time>
      </trkpt>
      <trkpt lat="45.42037" lon="6.04339">
        <ele>747</ele>
        <time>2016-07-12T09:09:51.000Z</time>
      </trkpt>
      <trkpt lat="45.42044" lon="6.0433">
        <ele>747</ele>
        <time>2016-07-12T09:09:59.000Z</time>
      </trkpt>
      <trkpt lat="45.42047" lon="6.04316">
        <ele>748</ele>
        <time>2016-07-12T09:10:13.000Z</time>
      </trkpt>
      <trkpt lat="45.42048" lon="6.04301">
        <ele>750</ele>
        <time>2016-07-12T09:10:24.000Z</time>
      </trkpt>
      <trkpt lat="45.42041" lon="6.04288">
        <ele>748</ele>
        <time>2016-07-12T09:10:33.000Z</time>
      </trkpt>
      <trkpt lat="45.42043" lon="6.04275">
        <ele>749</ele>
        <time>2016-07-12T09:10:43.000Z</time>
      </trkpt>
      <trkpt lat="45.42038" lon="6.04264">
        <ele>751</ele>
        <time>2016-07-12T09:10:53.000Z</time>
      </trkpt>
      <trkpt lat="45.42033" lon="6.04252">
        <ele>746</ele>
        <time>2016-07-12T09:11:04.000Z</time>
      </trkpt>
      <trkpt lat="45.42028" lon="6.04243">
        <ele>744</ele>
        <time>2016-07-12T09:11:14.000Z</time>
      </trkpt>
      <trkpt lat="45.42021" lon="6.04234">
        <ele>746</ele>
        <time>2016-07-12T09:11:24.000Z</time>
      </trkpt>
      <trkpt lat="45.42012" lon="6.0423">
        <ele>745</ele>
        <time>2016-07-12T09:11:29.000Z</time>
      </trkpt>
      <trkpt lat="45.42005" lon="6.04221">
        <ele>745</ele>
        <time>2016-07-12T09:11:38.000Z</time>
      </trkpt>
      <trkpt lat="45.41997" lon="6.04215">
        <ele>744</ele>
        <time>2016-07-12T09:11:46.000Z</time>
      </trkpt>
      <trkpt lat="45.41989" lon="6.04206">
        <ele>746</ele>
        <time>2016-07-12T09:11:56.000Z</time>
      </trkpt>
      <trkpt lat="45.41979" lon="6.04198">
        <ele>747</ele>
        <time>2016-07-12T09:12:07.000Z</time>
      </trkpt>
      <trkpt lat="45.4197" lon="6.04192">
        <ele>747</ele>
        <time>2016-07-12T09:12:16.000Z</time>
      </trkpt>
      <trkpt lat="45.41961" lon="6.04187">
        <ele>744</ele>
        <time>2016-07-12T09:12:25.000Z</time>
      </trkpt>
      <trkpt lat="45.41953" lon="6.04182">
        <ele>741</ele>
        <time>2016-07-12T09:12:35.000Z</time>
      </trkpt>
      <trkpt lat="45.41944" lon="6.04179">
        <ele>740</ele>
        <time>2016-07-12T09:12:42.000Z</time>
      </trkpt>
      <trkpt lat="45.41937" lon="6.04171">
        <ele>742</ele>
        <time>2016-07-12T09:12:51.000Z</time>
      </trkpt>
      <trkpt lat="45.41928" lon="6.04165">
        <ele>742</ele>
        <time>2016-07-12T09:12:59.000Z</time>
      </trkpt>
      <trkpt lat="45.41919" lon="6.04153">
        <ele>743</ele>
        <time>2016-07-12T09:13:14.000Z</time>
      </trkpt>
      <trkpt lat="45.4191" lon="6.04148">
        <ele>739</ele>
        <time>2016-07-12T09:13:24.000Z</time>
      </trkpt>
      <trkpt lat="45.41902" lon="6.04139">
        <ele>743</ele>
        <time>2016-07-12T09:13:32.000Z</time>
      </trkpt>
      <trkpt lat="45.41894" lon="6.04133">
        <ele>755</ele>
        <time>2016-07-12T09:13:42.000Z</time>
      </trkpt>
      <trkpt lat="45.41887" lon="6.04124">
        <ele>756</ele>
        <time>2016-07-12T09:13:50.000Z</time>
      </trkpt>
      <trkpt lat="45.41873" lon="6.04122">
        <ele>756</ele>
        <time>2016-07-12T09:13:58.000Z</time>
      </trkpt>
      <trkpt lat="45.41866" lon="6.04111">
        <ele>754</ele>
        <time>2016-07-12T09:14:07.000Z</time>
      </trkpt>
      <trkpt lat="45.41865" lon="6.04098">
        <ele>753</ele>
        <time>2016-07-12T09:14:15.000Z</time>
      </trkpt>
      <trkpt lat="45.41861" lon="6.04085">
        <ele>753</ele>
        <time>2016-07-12T09:14:26.000Z</time>
      </trkpt>
      <trkpt lat="45.41849" lon="6.04076">
        <ele>749</ele>
        <time>2016-07-12T09:14:38.000Z</time>
      </trkpt>
      <trkpt lat="45.41845" lon="6.04057">
        <ele>752</ele>
        <time>2016-07-12T09:14:48.000Z</time>
      </trkpt>
      <trkpt lat="45.41837" lon="6.04051">
        <ele>754</ele>
        <time>2016-07-12T09:14:53.000Z</time>
      </trkpt>
      <trkpt lat="45.4183" lon="6.0404">
        <ele>755</ele>
        <time>2016-07-12T09:15:00.000Z</time>
      </trkpt>
      <trkpt lat="45.41823" lon="6.0403">
        <ele>758</ele>
        <time>2016-07-12T09:15:09.000Z</time>
      </trkpt>
      <trkpt lat="45.41813" lon="6.04016">
        <ele>757</ele>
        <time>2016-07-12T09:15:20.000Z</time>
      </trkpt>
      <trkpt lat="45.41807" lon="6.04005">
        <ele>758</ele>
        <time>2016-07-12T09:15:29.000Z</time>
      </trkpt>
      <trkpt lat="45.41802" lon="6.03995">
        <ele>762</ele>
        <time>2016-07-12T09:15:38.000Z</time>
      </trkpt>
      <trkpt lat="45.41794" lon="6.03985">
        <ele>760</ele>
        <time>2016-07-12T09:15:47.000Z</time>
      </trkpt>
      <trkpt lat="45.41783" lon="6.03974">
        <ele>759</ele>
        <time>2016-07-12T09:15:57.000Z</time>
      </trkpt>
      <trkpt lat="45.41775" lon="6.03967">
        <ele>758</ele>
        <time>2016-07-12T09:16:05.000Z</time>
      </trkpt>
      <trkpt lat="45.41763" lon="6.03959">
        <ele>757</ele>
        <time>2016-07-12T09:16:17.000Z</time>
      </trkpt>
      <trkpt lat="45.41754" lon="6.03956">
        <ele>758</ele>
        <time>2016-07-12T09:16:22.000Z</time>
      </trkpt>
      <trkpt lat="45.41745" lon="6.03948">
        <ele>755</ele>
        <time>2016-07-12T09:16:33.000Z</time>
      </trkpt>
      <trkpt lat="45.41736" lon="6.03942">
        <ele>750</ele>
        <time>2016-07-12T09:16:42.000Z</time>
      </trkpt>
      <trkpt lat="45.41729" lon="6.03935">
        <ele>751</ele>
        <time>2016-07-12T09:16:50.000Z</time>
      </trkpt>
      <trkpt lat="45.41719" lon="6.03933">
        <ele>747</ele>
        <time>2016-07-12T09:16:59.000Z</time>
      </trkpt>
      <trkpt lat="45.4171" lon="6.03929">
        <ele>745</ele>
        <time>2016-07-12T09:17:07.000Z</time>
      </trkpt>
      <trkpt lat="45.41699" lon="6.03925">
        <ele>744</ele>
        <time>2016-07-12T09:17:17.000Z</time>
      </trkpt>
      <trkpt lat="45.41691" lon="6.03921">
        <ele>742</ele>
        <time>2016-07-12T09:17:25.000Z</time>
      </trkpt>
      <trkpt lat="45.41681" lon="6.03916">
        <ele>740</ele>
        <time>2016-07-12T09:17:35.000Z</time>
      </trkpt>
      <trkpt lat="45.41673" lon="6.03909">
        <ele>742</ele>
        <time>2016-07-12T09:17:47.000Z</time>
      </trkpt>
      <trkpt lat="45.41658" lon="6.03901">
        <ele>740</ele>
        <time>2016-07-12T09:18:00.000Z</time>
      </trkpt>
      <trkpt lat="45.41653" lon="6.03887">
        <ele>750</ele>
        <time>2016-07-12T09:18:08.000Z</time>
      </trkpt>
      <trkpt lat="45.41645" lon="6.03883">
        <ele>749</ele>
        <time>2016-07-12T09:18:16.000Z</time>
      </trkpt>
      <trkpt lat="45.41635" lon="6.03876">
        <ele>748</ele>
        <time>2016-07-12T09:18:23.000Z</time>
      </trkpt>
      <trkpt lat="45.41626" lon="6.03866">
        <ele>746</ele>
        <time>2016-07-12T09:18:34.000Z</time>
      </trkpt>
      <trkpt lat="45.41617" lon="6.03859">
        <ele>748</ele>
        <time>2016-07-12T09:18:43.000Z</time>
      </trkpt>
      <trkpt lat="45.41608" lon="6.03849">
        <ele>745</ele>
        <time>2016-07-12T09:18:53.000Z</time>
      </trkpt>
      <trkpt lat="45.41599" lon="6.03847">
        <ele>746</ele>
        <time>2016-07-12T09:18:58.000Z</time>
      </trkpt>
      <trkpt lat="45.41591" lon="6.03841">
        <ele>745</ele>
        <time>2016-07-12T09:19:06.000Z</time>
      </trkpt>
      <trkpt lat="45.41584" lon="6.03832">
        <ele>746</ele>
        <time>2016-07-12T09:19:15.000Z</time>
      </trkpt>
      <trkpt lat="45.41575" lon="6.03833">
        <ele>743</ele>
        <time>2016-07-12T09:19:26.000Z</time>
      </trkpt>
      <trkpt lat="45.41566" lon="6.03831">
        <ele>745</ele>
        <time>2016-07-12T09:19:31.000Z</time>
      </trkpt>
      <trkpt lat="45.41557" lon="6.03827">
        <ele>744</ele>
        <time>2016-07-12T09:19:38.000Z</time>
      </trkpt>
      <trkpt lat="45.41549" lon="6.03821">
        <ele>746</ele>
        <time>2016-07-12T09:19:44.000Z</time>
      </trkpt>
      <trkpt lat="45.4154" lon="6.03815">
        <ele>744</ele>
        <time>2016-07-12T09:19:54.000Z</time>
      </trkpt>
      <trkpt lat="45.41531" lon="6.03811">
        <ele>743</ele>
        <time>2016-07-12T09:20:02.000Z</time>
      </trkpt>
      <trkpt lat="45.41522" lon="6.03811">
        <ele>743</ele>
        <time>2016-07-12T09:20:11.000Z</time>
      </trkpt>
      <trkpt lat="45.4151" lon="6.03809">
        <ele>742</ele>
        <time>2016-07-12T09:20:19.000Z</time>
      </trkpt>
      <trkpt lat="45.41497" lon="6.03811">
        <ele>737</ele>
        <time>2016-07-12T09:20:31.000Z</time>
      </trkpt>
      <trkpt lat="45.41488" lon="6.03813">
        <ele>741</ele>
        <time>2016-07-12T09:20:40.000Z</time>
      </trkpt>
      <trkpt lat="45.4148" lon="6.03823">
        <ele>744</ele>
        <time>2016-07-12T09:20:51.000Z</time>
      </trkpt>
      <trkpt lat="45.41473" lon="6.03835">
        <ele>743</ele>
        <time>2016-07-12T09:21:00.000Z</time>
      </trkpt>
      <trkpt lat="45.41468" lon="6.03848">
        <ele>746</ele>
        <time>2016-07-12T09:21:11.000Z</time>
      </trkpt>
      <trkpt lat="45.41465" lon="6.0386">
        <ele>745</ele>
        <time>2016-07-12T09:21:20.000Z</time>
      </trkpt>
      <trkpt lat="45.41459" lon="6.03873">
        <ele>746</ele>
        <time>2016-07-12T09:21:29.000Z</time>
      </trkpt>
      <trkpt lat="45.41453" lon="6.0389">
        <ele>746</ele>
        <time>2016-07-12T09:21:42.000Z</time>
      </trkpt>
      <trkpt lat="45.41451" lon="6.03904">
        <ele>747</ele>
        <time>2016-07-12T09:21:51.000Z</time>
      </trkpt>
      <trkpt lat="45.41448" lon="6.03918">
        <ele>747</ele>
        <time>2016-07-12T09:21:59.000Z</time>
      </trkpt>
      <trkpt lat="45.41443" lon="6.03929">
        <ele>744</ele>
        <time>2016-07-12T09:22:09.000Z</time>
      </trkpt>
      <trkpt lat="45.41444" lon="6.03916">
        <ele>743</ele>
        <time>2016-07-12T09:22:30.000Z</time>
      </trkpt>
      <trkpt lat="45.41443" lon="6.03903">
        <ele>743</ele>
        <time>2016-07-12T09:22:46.000Z</time>
      </trkpt>
      <trkpt lat="45.41442" lon="6.03889">
        <ele>743</ele>
        <time>2016-07-12T09:23:03.000Z</time>
      </trkpt>
      <trkpt lat="45.41446" lon="6.03877">
        <ele>742</ele>
        <time>2016-07-12T09:23:17.000Z</time>
      </trkpt>
      <trkpt lat="45.41444" lon="6.03858">
        <ele>745</ele>
        <time>2016-07-12T09:24:03.000Z</time>
      </trkpt>
      <trkpt lat="45.41446" lon="6.03842">
        <ele>744</ele>
        <time>2016-07-12T09:24:13.000Z</time>
      </trkpt>
      <trkpt lat="45.41448" lon="6.03829">
        <ele>740</ele>
        <time>2016-07-12T09:24:22.000Z</time>
      </trkpt>
      <trkpt lat="45.41453" lon="6.03812">
        <ele>731</ele>
        <time>2016-07-12T09:24:34.000Z</time>
      </trkpt>
      <trkpt lat="45.41461" lon="6.03801">
        <ele>732</ele>
        <time>2016-07-12T09:24:43.000Z</time>
      </trkpt>
      <trkpt lat="45.41461" lon="6.03782">
        <ele>734</ele>
        <time>2016-07-12T09:25:13.000Z</time>
      </trkpt>
      <trkpt lat="45.41462" lon="6.03767">
        <ele>735</ele>
        <time>2016-07-12T09:25:19.000Z</time>
      </trkpt>
      <trkpt lat="45.41471" lon="6.03759">
        <ele>737</ele>
        <time>2016-07-12T09:25:32.000Z</time>
      </trkpt>
      <trkpt lat="45.41478" lon="6.03751">
        <ele>733</ele>
        <time>2016-07-12T09:25:43.000Z</time>
      </trkpt>
      <trkpt lat="45.41487" lon="6.03745">
        <ele>734</ele>
        <time>2016-07-12T09:25:57.000Z</time>
      </trkpt>
      <trkpt lat="45.41478" lon="6.03738">
        <ele>732</ele>
        <time>2016-07-12T09:26:43.000Z</time>
      </trkpt>
      <trkpt lat="45.4147" lon="6.03735">
        <ele>728</ele>
        <time>2016-07-12T09:26:53.000Z</time>
      </trkpt>
      <trkpt lat="45.4146" lon="6.03733">
        <ele>722</ele>
        <time>2016-07-12T09:27:06.000Z</time>
      </trkpt>
      <trkpt lat="45.4145" lon="6.03732">
        <ele>721</ele>
        <time>2016-07-12T09:27:22.000Z</time>
      </trkpt>
      <trkpt lat="45.41444" lon="6.03743">
        <ele>716</ele>
        <time>2016-07-12T09:27:47.000Z</time>
      </trkpt>
      <trkpt lat="45.41437" lon="6.03753">
        <ele>706</ele>
        <time>2016-07-12T09:28:11.000Z</time>
      </trkpt>
      <trkpt lat="45.4143" lon="6.03769">
        <ele>708</ele>
        <time>2016-07-12T09:28:20.000Z</time>
      </trkpt>
      <trkpt lat="45.4142" lon="6.03785">
        <ele>709</ele>
        <time>2016-07-12T09:28:32.000Z</time>
      </trkpt>
      <trkpt lat="45.41415" lon="6.03796">
        <ele>710</ele>
        <time>2016-07-12T09:28:47.000Z</time>
      </trkpt>
      <trkpt lat="45.41409" lon="6.03806">
        <ele>710</ele>
        <time>2016-07-12T09:28:56.000Z</time>
      </trkpt>
      <trkpt lat="45.41397" lon="6.0381">
        <ele>716</ele>
        <time>2016-07-12T09:29:29.000Z</time>
      </trkpt>
      <trkpt lat="45.41396" lon="6.03823">
        <ele>715</ele>
        <time>2016-07-12T09:29:33.000Z</time>
      </trkpt>
      <trkpt lat="45.41388" lon="6.03834">
        <ele>713</ele>
        <time>2016-07-12T09:29:41.000Z</time>
      </trkpt>
      <trkpt lat="45.41383" lon="6.03845">
        <ele>705</ele>
        <time>2016-07-12T09:30:15.000Z</time>
      </trkpt>
      <trkpt lat="45.41374" lon="6.03853">
        <ele>699</ele>
        <time>2016-07-12T09:30:50.000Z</time>
      </trkpt>
      <trkpt lat="45.41366" lon="6.03848">
        <ele>697</ele>
        <time>2016-07-12T09:31:17.000Z</time>
      </trkpt>
      <trkpt lat="45.41367" lon="6.03833">
        <ele>701</ele>
        <time>2016-07-12T09:32:14.000Z</time>
      </trkpt>
      <trkpt lat="45.41373" lon="6.0382">
        <ele>702</ele>
        <time>2016-07-12T09:32:27.000Z</time>
      </trkpt>
      <trkpt lat="45.41381" lon="6.03814">
        <ele>695</ele>
        <time>2016-07-12T09:32:37.000Z</time>
      </trkpt>
      <trkpt lat="45.41373" lon="6.03805">
        <ele>696</ele>
        <time>2016-07-12T09:32:44.000Z</time>
      </trkpt>
      <trkpt lat="45.41381" lon="6.03821">
        <ele>698</ele>
        <time>2016-07-12T09:32:56.000Z</time>
      </trkpt>
      <trkpt lat="45.41377" lon="6.03807">
        <ele>699</ele>
        <time>2016-07-12T09:32:59.000Z</time>
      </trkpt>
      <trkpt lat="45.41381" lon="6.03791">
        <ele>692</ele>
        <time>2016-07-12T09:33:40.000Z</time>
      </trkpt>
      <trkpt lat="45.41385" lon="6.03777">
        <ele>697</ele>
        <time>2016-07-12T09:33:48.000Z</time>
      </trkpt>
      <trkpt lat="45.41387" lon="6.03754">
        <ele>687</ele>
        <time>2016-07-12T09:35:34.000Z</time>
      </trkpt>
      <trkpt lat="45.41385" lon="6.0374">
        <ele>678</ele>
        <time>2016-07-12T09:35:44.000Z</time>
      </trkpt>
      <trkpt lat="45.4139" lon="6.03727">
        <ele>671</ele>
        <time>2016-07-12T09:35:54.000Z</time>
      </trkpt>
      <trkpt lat="45.41394" lon="6.0371">
        <ele>672</ele>
        <time>2016-07-12T09:36:03.000Z</time>
      </trkpt>
      <trkpt lat="45.41394" lon="6.03697">
        <ele>673</ele>
        <time>2016-07-12T09:36:22.000Z</time>
      </trkpt>
      <trkpt lat="45.41395" lon="6.03682">
        <ele>681</ele>
        <time>2016-07-12T09:36:30.000Z</time>
      </trkpt>
      <trkpt lat="45.41396" lon="6.03668">
        <ele>682</ele>
        <time>2016-07-12T09:36:53.000Z</time>
      </trkpt>
      <trkpt lat="45.41402" lon="6.03653">
        <ele>678</ele>
        <time>2016-07-12T09:37:11.000Z</time>
      </trkpt>
      <trkpt lat="45.41413" lon="6.03645">
        <ele>672</ele>
        <time>2016-07-12T09:37:21.000Z</time>
      </trkpt>
      <trkpt lat="45.41419" lon="6.03632">
        <ele>673</ele>
        <time>2016-07-12T09:37:37.000Z</time>
      </trkpt>
      <trkpt lat="45.41427" lon="6.03622">
        <ele>671</ele>
        <time>2016-07-12T09:37:55.000Z</time>
      </trkpt>
      <trkpt lat="45.41435" lon="6.03613">
        <ele>671</ele>
        <time>2016-07-12T09:38:17.000Z</time>
      </trkpt>
      <trkpt lat="45.41441" lon="6.03602">
        <ele>669</ele>
        <time>2016-07-12T09:38:28.000Z</time>
      </trkpt>
      <trkpt lat="45.41446" lon="6.03592">
        <ele>667</ele>
        <time>2016-07-12T09:38:36.000Z</time>
      </trkpt>
      <trkpt lat="45.41456" lon="6.0359">
        <ele>665</ele>
        <time>2016-07-12T09:38:44.000Z</time>
      </trkpt>
      <trkpt lat="45.41455" lon="6.03577">
        <ele>667</ele>
        <time>2016-07-12T09:38:55.000Z</time>
      </trkpt>
      <trkpt lat="45.41461" lon="6.03566">
        <ele>667</ele>
        <time>2016-07-12T09:39:10.000Z</time>
      </trkpt>
      <trkpt lat="45.41465" lon="6.03552">
        <ele>663</ele>
        <time>2016-07-12T09:39:28.000Z</time>
      </trkpt>
      <trkpt lat="45.41472" lon="6.03539">
        <ele>661</ele>
        <time>2016-07-12T09:39:46.000Z</time>
      </trkpt>
      <trkpt lat="45.41474" lon="6.03526">
        <ele>658</ele>
        <time>2016-07-12T09:39:58.000Z</time>
      </trkpt>
      <trkpt lat="45.4148" lon="6.03516">
        <ele>658</ele>
        <time>2016-07-12T09:40:08.000Z</time>
      </trkpt>
      <trkpt lat="45.41485" lon="6.03504">
        <ele>655</ele>
        <time>2016-07-12T09:40:24.000Z</time>
      </trkpt>
      <trkpt lat="45.41488" lon="6.03489">
        <ele>655</ele>
        <time>2016-07-12T09:40:36.000Z</time>
      </trkpt>
      <trkpt lat="45.41492" lon="6.03476">
        <ele>659</ele>
        <time>2016-07-12T09:40:50.000Z</time>
      </trkpt>
      <trkpt lat="45.41495" lon="6.03462">
        <ele>657</ele>
        <time>2016-07-12T09:41:00.000Z</time>
      </trkpt>
      <trkpt lat="45.41494" lon="6.03448">
        <ele>662</ele>
        <time>2016-07-12T09:41:12.000Z</time>
      </trkpt>
      <trkpt lat="45.41495" lon="6.03434">
        <ele>644</ele>
        <time>2016-07-12T09:41:39.000Z</time>
      </trkpt>
      <trkpt lat="45.4149" lon="6.03423">
        <ele>644</ele>
        <time>2016-07-12T09:41:47.000Z</time>
      </trkpt>
      <trkpt lat="45.41489" lon="6.03401">
        <ele>637</ele>
        <time>2016-07-12T09:42:32.000Z</time>
      </trkpt>
      <trkpt lat="45.4149" lon="6.03382">
        <ele>638</ele>
        <time>2016-07-12T09:42:43.000Z</time>
      </trkpt>
      <trkpt lat="45.41492" lon="6.03369">
        <ele>632</ele>
        <time>2016-07-12T09:43:00.000Z</time>
      </trkpt>
      <trkpt lat="45.41486" lon="6.03355">
        <ele>632</ele>
        <time>2016-07-12T09:43:11.000Z</time>
      </trkpt>
      <trkpt lat="45.41483" lon="6.0334">
        <ele>628</ele>
        <time>2016-07-12T09:43:34.000Z</time>
      </trkpt>
      <trkpt lat="45.4148" lon="6.03328">
        <ele>622</ele>
        <time>2016-07-12T09:43:46.000Z</time>
      </trkpt>
      <trkpt lat="45.41483" lon="6.03313">
        <ele>625</ele>
        <time>2016-07-12T09:44:00.000Z</time>
      </trkpt>
      <trkpt lat="45.41482" lon="6.03297">
        <ele>623</ele>
        <time>2016-07-12T09:44:22.000Z</time>
      </trkpt>
      <trkpt lat="45.4148" lon="6.03285">
        <ele>626</ele>
        <time>2016-07-12T09:44:36.000Z</time>
      </trkpt>
      <trkpt lat="45.41477" lon="6.03298">
        <ele>618</ele>
        <time>2016-07-12T09:47:50.000Z</time>
      </trkpt>
      <trkpt lat="45.41473" lon="6.03311">
        <ele>617</ele>
        <time>2016-07-12T09:47:55.000Z</time>
      </trkpt>
      <trkpt lat="45.41471" lon="6.03327">
        <ele>609</ele>
        <time>2016-07-12T09:48:06.000Z</time>
      </trkpt>
      <trkpt lat="45.41472" lon="6.0334">
        <ele>605</ele>
        <time>2016-07-12T09:48:16.000Z</time>
      </trkpt>
      <trkpt lat="45.41469" lon="6.03353">
        <ele>607</ele>
        <time>2016-07-12T09:48:30.000Z</time>
      </trkpt>
      <trkpt lat="45.4146" lon="6.0335">
        <ele>610</ele>
        <time>2016-07-12T09:48:53.000Z</time>
      </trkpt>
      <trkpt lat="45.41452" lon="6.03342">
        <ele>622</ele>
        <time>2016-07-12T09:49:15.000Z</time>
      </trkpt>
      <trkpt lat="45.41446" lon="6.03329">
        <ele>618</ele>
        <time>2016-07-12T09:49:26.000Z</time>
      </trkpt>
      <trkpt lat="45.41434" lon="6.03335">
        <ele>617</ele>
        <time>2016-07-12T09:49:39.000Z</time>
      </trkpt>
      <trkpt lat="45.4143" lon="6.03324">
        <ele>615</ele>
        <time>2016-07-12T09:49:53.000Z</time>
      </trkpt>
      <trkpt lat="45.41427" lon="6.03311">
        <ele>615</ele>
        <time>2016-07-12T09:49:57.000Z</time>
      </trkpt>
      <trkpt lat="45.41421" lon="6.033">
        <ele>611</ele>
        <time>2016-07-12T09:50:07.000Z</time>
      </trkpt>
      <trkpt lat="45.41414" lon="6.03289">
        <ele>609</ele>
        <time>2016-07-12T09:50:17.000Z</time>
      </trkpt>
      <trkpt lat="45.41403" lon="6.03288">
        <ele>614</ele>
        <time>2016-07-12T09:50:27.000Z</time>
      </trkpt>
      <trkpt lat="45.41394" lon="6.03287">
        <ele>618</ele>
        <time>2016-07-12T09:50:36.000Z</time>
      </trkpt>
      <trkpt lat="45.41386" lon="6.0328">
        <ele>613</ele>
        <time>2016-07-12T09:50:46.000Z</time>
      </trkpt>
      <trkpt lat="45.4138" lon="6.0327">
        <ele>614</ele>
        <time>2016-07-12T09:50:55.000Z</time>
      </trkpt>
      <trkpt lat="45.41375" lon="6.03258">
        <ele>613</ele>
        <time>2016-07-12T09:51:03.000Z</time>
      </trkpt>
      <trkpt lat="45.41366" lon="6.03249">
        <ele>612</ele>
        <time>2016-07-12T09:51:11.000Z</time>
      </trkpt>
      <trkpt lat="45.41357" lon="6.03239">
        <ele>618</ele>
        <time>2016-07-12T09:51:22.000Z</time>
      </trkpt>
      <trkpt lat="45.41351" lon="6.03227">
        <ele>623</ele>
        <time>2016-07-12T09:51:32.000Z</time>
      </trkpt>
      <trkpt lat="45.41349" lon="6.03213">
        <ele>627</ele>
        <time>2016-07-12T09:51:42.000Z</time>
      </trkpt>
      <trkpt lat="45.41346" lon="6.03199">
        <ele>626</ele>
        <time>2016-07-12T09:51:55.000Z</time>
      </trkpt>
      <trkpt lat="45.41343" lon="6.03187">
        <ele>620</ele>
        <time>2016-07-12T09:52:02.000Z</time>
      </trkpt>
      <trkpt lat="45.41347" lon="6.03174">
        <ele>622</ele>
        <time>2016-07-12T09:52:10.000Z</time>
      </trkpt>
      <trkpt lat="45.41345" lon="6.03162">
        <ele>619</ele>
        <time>2016-07-12T09:52:18.000Z</time>
      </trkpt>
      <trkpt lat="45.41338" lon="6.03142">
        <ele>618</ele>
        <time>2016-07-12T09:52:32.000Z</time>
      </trkpt>
      <trkpt lat="45.41336" lon="6.03129">
        <ele>617</ele>
        <time>2016-07-12T09:52:41.000Z</time>
      </trkpt>
      <trkpt lat="45.41333" lon="6.03117">
        <ele>617</ele>
        <time>2016-07-12T09:52:51.000Z</time>
      </trkpt>
      <trkpt lat="45.41331" lon="6.03103">
        <ele>621</ele>
        <time>2016-07-12T09:53:01.000Z</time>
      </trkpt>
      <trkpt lat="45.41327" lon="6.03089">
        <ele>622</ele>
        <time>2016-07-12T09:53:12.000Z</time>
      </trkpt>
      <trkpt lat="45.41326" lon="6.03073">
        <ele>623</ele>
        <time>2016-07-12T09:53:24.000Z</time>
      </trkpt>
      <trkpt lat="45.41322" lon="6.03059">
        <ele>630</ele>
        <time>2016-07-12T09:53:49.000Z</time>
      </trkpt>
      <trkpt lat="45.41318" lon="6.03046">
        <ele>625</ele>
        <time>2016-07-12T09:54:05.000Z</time>
      </trkpt>
      <trkpt lat="45.41316" lon="6.03033">
        <ele>621</ele>
        <time>2016-07-12T09:54:16.000Z</time>
      </trkpt>
      <trkpt lat="45.41316" lon="6.0302">
        <ele>621</ele>
        <time>2016-07-12T09:54:27.000Z</time>
      </trkpt>
      <trkpt lat="45.41312" lon="6.03008">
        <ele>621</ele>
        <time>2016-07-12T09:54:47.000Z</time>
      </trkpt>
      <trkpt lat="45.41307" lon="6.02996">
        <ele>619</ele>
        <time>2016-07-12T09:54:56.000Z</time>
      </trkpt>
      <trkpt lat="45.41306" lon="6.02975">
        <ele>615</ele>
        <time>2016-07-12T09:56:05.000Z</time>
      </trkpt>
      <trkpt lat="45.4131" lon="6.02962">
        <ele>609</ele>
        <time>2016-07-12T09:56:09.000Z</time>
      </trkpt>
      <trkpt lat="45.41319" lon="6.0295">
        <ele>609</ele>
        <time>2016-07-12T09:56:49.000Z</time>
      </trkpt>
      <trkpt lat="45.41326" lon="6.02941">
        <ele>608</ele>
        <time>2016-07-12T09:56:58.000Z</time>
      </trkpt>
      <trkpt lat="45.41333" lon="6.02931">
        <ele>605</ele>
        <time>2016-07-12T09:57:27.000Z</time>
      </trkpt>
      <trkpt lat="45.4133" lon="6.02918">
        <ele>600</ele>
        <time>2016-07-12T09:57:37.000Z</time>
      </trkpt>
      <trkpt lat="45.4133" lon="6.02904">
        <ele>602</ele>
        <time>2016-07-12T09:57:45.000Z</time>
      </trkpt>
      <trkpt lat="45.41328" lon="6.02887">
        <ele>601</ele>
        <time>2016-07-12T09:58:23.000Z</time>
      </trkpt>
      <trkpt lat="45.41323" lon="6.02869">
        <ele>594</ele>
        <time>2016-07-12T09:58:33.000Z</time>
      </trkpt>
      <trkpt lat="45.41319" lon="6.02856">
        <ele>590</ele>
        <time>2016-07-12T09:58:43.000Z</time>
      </trkpt>
      <trkpt lat="45.41314" lon="6.02844">
        <ele>585</ele>
        <time>2016-07-12T09:59:00.000Z</time>
      </trkpt>
      <trkpt lat="45.4131" lon="6.02828">
        <ele>587</ele>
        <time>2016-07-12T09:59:22.000Z</time>
      </trkpt>
      <trkpt lat="45.41309" lon="6.02812">
        <ele>592</ele>
        <time>2016-07-12T09:59:49.000Z</time>
      </trkpt>
      <trkpt lat="45.41298" lon="6.02801">
        <ele>589</ele>
        <time>2016-07-12T10:00:21.000Z</time>
      </trkpt>
      <trkpt lat="45.41294" lon="6.02789">
        <ele>591</ele>
        <time>2016-07-12T10:00:26.000Z</time>
      </trkpt>
      <trkpt lat="45.41284" lon="6.02788">
        <ele>578</ele>
        <time>2016-07-12T10:00:55.000Z</time>
      </trkpt>
      <trkpt lat="45.41275" lon="6.02785">
        <ele>571</ele>
        <time>2016-07-12T10:01:11.000Z</time>
      </trkpt>
      <trkpt lat="45.41267" lon="6.02773">
        <ele>568</ele>
        <time>2016-07-12T10:01:19.000Z</time>
      </trkpt>
      <trkpt lat="45.41261" lon="6.02761">
        <ele>571</ele>
        <time>2016-07-12T10:01:29.000Z</time>
      </trkpt>
      <trkpt lat="45.41253" lon="6.02753">
        <ele>564</ele>
        <time>2016-07-12T10:01:47.000Z</time>
      </trkpt>
      <trkpt lat="45.41245" lon="6.02747">
        <ele>553</ele>
        <time>2016-07-12T10:02:01.000Z</time>
      </trkpt>
      <trkpt lat="45.41245" lon="6.02734">
        <ele>557</ele>
        <time>2016-07-12T10:02:12.000Z</time>
      </trkpt>
      <trkpt lat="45.41243" lon="6.0272">
        <ele>548</ele>
        <time>2016-07-12T10:04:03.000Z</time>
      </trkpt>
      <trkpt lat="45.41238" lon="6.02709">
        <ele>544</ele>
        <time>2016-07-12T10:04:47.000Z</time>
      </trkpt>
      <trkpt lat="45.41249" lon="6.02712">
        <ele>532</ele>
        <time>2016-07-12T10:08:45.000Z</time>
      </trkpt>
      <trkpt lat="45.4126" lon="6.02712">
        <ele>536</ele>
        <time>2016-07-12T10:08:53.000Z</time>
      </trkpt>
      <trkpt lat="45.41272" lon="6.0272">
        <ele>538</ele>
        <time>2016-07-12T10:09:19.000Z</time>
      </trkpt>
      <trkpt lat="45.41281" lon="6.02725">
        <ele>531</ele>
        <time>2016-07-12T10:09:31.000Z</time>
      </trkpt>
      <trkpt lat="45.4129" lon="6.0273">
        <ele>529</ele>
        <time>2016-07-12T10:09:42.000Z</time>
      </trkpt>
      <trkpt lat="45.41298" lon="6.02724">
        <ele>528</ele>
        <time>2016-07-12T10:09:51.000Z</time>
      </trkpt>
      <trkpt lat="45.41306" lon="6.02731">
        <ele>522</ele>
        <time>2016-07-12T10:10:07.000Z</time>
      </trkpt>
      <trkpt lat="45.41315" lon="6.0273">
        <ele>528</ele>
        <time>2016-07-12T10:10:16.000Z</time>
      </trkpt>
      <trkpt lat="45.41316" lon="6.02743">
        <ele>511</ele>
        <time>2016-07-12T10:10:31.000Z</time>
      </trkpt>
      <trkpt lat="45.41324" lon="6.02751">
        <ele>504</ele>
        <time>2016-07-12T10:10:42.000Z</time>
      </trkpt>
      <trkpt lat="45.41335" lon="6.02748">
        <ele>502</ele>
        <time>2016-07-12T10:10:56.000Z</time>
      </trkpt>
      <trkpt lat="45.41344" lon="6.0275">
        <ele>499</ele>
        <time>2016-07-12T10:11:42.000Z</time>
      </trkpt>
      <trkpt lat="45.41353" lon="6.02755">
        <ele>496</ele>
        <time>2016-07-12T10:11:51.000Z</time>
      </trkpt>
      <trkpt lat="45.41362" lon="6.0276">
        <ele>498</ele>
        <time>2016-07-12T10:12:04.000Z</time>
      </trkpt>
      <trkpt lat="45.41373" lon="6.02757">
        <ele>504</ele>
        <time>2016-07-12T10:12:28.000Z</time>
      </trkpt>
      <trkpt lat="45.41382" lon="6.02759">
        <ele>505</ele>
        <time>2016-07-12T10:12:32.000Z</time>
      </trkpt>
      <trkpt lat="45.41391" lon="6.02762">
        <ele>503</ele>
        <time>2016-07-12T10:12:39.000Z</time>
      </trkpt>
      <trkpt lat="45.41401" lon="6.02766">
        <ele>510</ele>
        <time>2016-07-12T10:12:49.000Z</time>
      </trkpt>
      <trkpt lat="45.4141" lon="6.02774">
        <ele>504</ele>
        <time>2016-07-12T10:13:07.000Z</time>
      </trkpt>
      <trkpt lat="45.41419" lon="6.02776">
        <ele>501</ele>
        <time>2016-07-12T10:13:19.000Z</time>
      </trkpt>
      <trkpt lat="45.41429" lon="6.02778">
        <ele>503</ele>
        <time>2016-07-12T10:13:36.000Z</time>
      </trkpt>
      <trkpt lat="45.41439" lon="6.02786">
        <ele>505</ele>
        <time>2016-07-12T10:13:48.000Z</time>
      </trkpt>
      <trkpt lat="45.41447" lon="6.02793">
        <ele>506</ele>
        <time>2016-07-12T10:14:01.000Z</time>
      </trkpt>
      <trkpt lat="45.41456" lon="6.02798">
        <ele>505</ele>
        <time>2016-07-12T10:14:11.000Z</time>
      </trkpt>
      <trkpt lat="45.41465" lon="6.02798">
        <ele>508</ele>
        <time>2016-07-12T10:14:19.000Z</time>
      </trkpt>
      <trkpt lat="45.41473" lon="6.02806">
        <ele>501</ele>
        <time>2016-07-12T10:14:28.000Z</time>
      </trkpt>
      <trkpt lat="45.41482" lon="6.02811">
        <ele>493</ele>
        <time>2016-07-12T10:14:47.000Z</time>
      </trkpt>
      <trkpt lat="45.41491" lon="6.02815">
        <ele>486</ele>
        <time>2016-07-12T10:15:04.000Z</time>
      </trkpt>
      <trkpt lat="45.41501" lon="6.02812">
        <ele>482</ele>
        <time>2016-07-12T10:15:24.000Z</time>
      </trkpt>
      <trkpt lat="45.4151" lon="6.02808">
        <ele>480</ele>
        <time>2016-07-12T10:15:35.000Z</time>
      </trkpt>
      <trkpt lat="45.41515" lon="6.02796">
        <ele>485</ele>
        <time>2016-07-12T10:15:52.000Z</time>
      </trkpt>
      <trkpt lat="45.41522" lon="6.02789">
        <ele>475</ele>
        <time>2016-07-12T10:16:30.000Z</time>
      </trkpt>
      <trkpt lat="45.41522" lon="6.02776">
        <ele>483</ele>
        <time>2016-07-12T10:48:12.000Z</time>
      </trkpt>
      <trkpt lat="45.41512" lon="6.02776">
        <ele>500</ele>
        <time>2016-07-12T10:50:40.000Z</time>
      </trkpt>
      <trkpt lat="45.41511" lon="6.02789">
        <ele>498</ele>
        <time>2016-07-12T10:53:10.000Z</time>
      </trkpt>
      <trkpt lat="45.4152" lon="6.02792">
        <ele>492</ele>
        <time>2016-07-12T10:54:11.000Z</time>
      </trkpt>
      <trkpt lat="45.41531" lon="6.0279">
        <ele>486</ele>
        <time>2016-07-12T10:54:34.000Z</time>
      </trkpt>
      <trkpt lat="45.41539" lon="6.02781">
        <ele>483</ele>
        <time>2016-07-12T10:54:50.000Z</time>
      </trkpt>
      <trkpt lat="45.41549" lon="6.02773">
        <ele>483</ele>
        <time>2016-07-12T10:55:19.000Z</time>
      </trkpt>
      <trkpt lat="45.41559" lon="6.02765">
        <ele>482</ele>
        <time>2016-07-12T10:55:27.000Z</time>
      </trkpt>
      <trkpt lat="45.41566" lon="6.02756">
        <ele>482</ele>
        <time>2016-07-12T10:55:41.000Z</time>
      </trkpt>
      <trkpt lat="45.41574" lon="6.02744">
        <ele>478</ele>
        <time>2016-07-12T10:56:13.000Z</time>
      </trkpt>
      <trkpt lat="45.41586" lon="6.02739">
        <ele>473</ele>
        <time>2016-07-12T10:56:20.000Z</time>
      </trkpt>
      <trkpt lat="45.41591" lon="6.02727">
        <ele>472</ele>
        <time>2016-07-12T10:56:36.000Z</time>
      </trkpt>
      <trkpt lat="45.41599" lon="6.02711">
        <ele>471</ele>
        <time>2016-07-12T10:57:04.000Z</time>
      </trkpt>
      <trkpt lat="45.41602" lon="6.02698">
        <ele>468</ele>
        <time>2016-07-12T10:57:36.000Z</time>
      </trkpt>
      <trkpt lat="45.41608" lon="6.02681">
        <ele>467</ele>
        <time>2016-07-12T10:57:47.000Z</time>
      </trkpt>
      <trkpt lat="45.41613" lon="6.02668">
        <ele>462</ele>
        <time>2016-07-12T10:58:06.000Z</time>
      </trkpt>
      <trkpt lat="45.41622" lon="6.02664">
        <ele>463</ele>
        <time>2016-07-12T10:58:12.000Z</time>
      </trkpt>
      <trkpt lat="45.41623" lon="6.02649">
        <ele>460</ele>
        <time>2016-07-12T10:58:27.000Z</time>
      </trkpt>
      <trkpt lat="45.41633" lon="6.02643">
        <ele>458</ele>
        <time>2016-07-12T10:58:43.000Z</time>
      </trkpt>
      <trkpt lat="45.41639" lon="6.02634">
        <ele>456</ele>
        <time>2016-07-12T10:59:09.000Z</time>
      </trkpt>
      <trkpt lat="45.41647" lon="6.02625">
        <ele>455</ele>
        <time>2016-07-12T10:59:30.000Z</time>
      </trkpt>
      <trkpt lat="45.4165" lon="6.02613">
        <ele>444</ele>
        <time>2016-07-12T10:59:44.000Z</time>
      </trkpt>
      <trkpt lat="45.41665" lon="6.02603">
        <ele>442</ele>
        <time>2016-07-12T10:59:56.000Z</time>
      </trkpt>
      <trkpt lat="45.41673" lon="6.02594">
        <ele>438</ele>
        <time>2016-07-12T11:00:09.000Z</time>
      </trkpt>
      <trkpt lat="45.41682" lon="6.0259">
        <ele>437</ele>
        <time>2016-07-12T11:00:25.000Z</time>
      </trkpt>
      <trkpt lat="45.41693" lon="6.02583">
        <ele>439</ele>
        <time>2016-07-12T11:00:34.000Z</time>
      </trkpt>
      <trkpt lat="45.41702" lon="6.02584">
        <ele>440</ele>
        <time>2016-07-12T11:00:40.000Z</time>
      </trkpt>
      <trkpt lat="45.41708" lon="6.02572">
        <ele>439</ele>
        <time>2016-07-12T11:00:57.000Z</time>
      </trkpt>
      <trkpt lat="45.41718" lon="6.02569">
        <ele>441</ele>
        <time>2016-07-12T11:01:05.000Z</time>
      </trkpt>
      <trkpt lat="45.41726" lon="6.0256">
        <ele>435</ele>
        <time>2016-07-12T11:01:18.000Z</time>
      </trkpt>
      <trkpt lat="45.41734" lon="6.02554">
        <ele>434</ele>
        <time>2016-07-12T11:01:31.000Z</time>
      </trkpt>
      <trkpt lat="45.41744" lon="6.02553">
        <ele>431</ele>
        <time>2016-07-12T11:01:40.000Z</time>
      </trkpt>
      <trkpt lat="45.41758" lon="6.02552">
        <ele>431</ele>
        <time>2016-07-12T11:01:48.000Z</time>
      </trkpt>
      <trkpt lat="45.41768" lon="6.02543">
        <ele>430</ele>
        <time>2016-07-12T11:01:59.000Z</time>
      </trkpt>
      <trkpt lat="45.41761" lon="6.02534">
        <ele>425</ele>
        <time>2016-07-12T11:02:06.000Z</time>
      </trkpt>
      <trkpt lat="45.41768" lon="6.02523">
        <ele>425</ele>
        <time>2016-07-12T11:02:18.000Z</time>
      </trkpt>
      <trkpt lat="45.41773" lon="6.0251">
        <ele>423</ele>
        <time>2016-07-12T11:02:36.000Z</time>
      </trkpt>
      <trkpt lat="45.41779" lon="6.025">
        <ele>425</ele>
        <time>2016-07-12T11:02:54.000Z</time>
      </trkpt>
      <trkpt lat="45.41787" lon="6.02486">
        <ele>425</ele>
        <time>2016-07-12T11:03:03.000Z</time>
      </trkpt>
      <trkpt lat="45.41795" lon="6.0248">
        <ele>423</ele>
        <time>2016-07-12T11:03:08.000Z</time>
      </trkpt>
      <trkpt lat="45.41802" lon="6.02472">
        <ele>426</ele>
        <time>2016-07-12T11:03:17.000Z</time>
      </trkpt>
      <trkpt lat="45.41812" lon="6.02473">
        <ele>425</ele>
        <time>2016-07-12T11:03:36.000Z</time>
      </trkpt>
      <trkpt lat="45.41822" lon="6.02473">
        <ele>421</ele>
        <time>2016-07-12T11:03:44.000Z</time>
      </trkpt>
      <trkpt lat="45.41831" lon="6.02471">
        <ele>418</ele>
        <time>2016-07-12T11:03:51.000Z</time>
      </trkpt>
      <trkpt lat="45.4184" lon="6.02468">
        <ele>416</ele>
        <time>2016-07-12T11:04:01.000Z</time>
      </trkpt>
      <trkpt lat="45.41848" lon="6.02461">
        <ele>412</ele>
        <time>2016-07-12T11:04:16.000Z</time>
      </trkpt>
      <trkpt lat="45.41858" lon="6.02453">
        <ele>412</ele>
        <time>2016-07-12T11:04:26.000Z</time>
      </trkpt>
      <trkpt lat="45.41868" lon="6.02447">
        <ele>410</ele>
        <time>2016-07-12T11:04:40.000Z</time>
      </trkpt>
      <trkpt lat="45.41872" lon="6.02435">
        <ele>407</ele>
        <time>2016-07-12T11:04:58.000Z</time>
      </trkpt>
      <trkpt lat="45.41874" lon="6.02422">
        <ele>405</ele>
        <time>2016-07-12T11:05:31.000Z</time>
      </trkpt>
      <trkpt lat="45.41875" lon="6.02409">
        <ele>405</ele>
        <time>2016-07-12T11:05:45.000Z</time>
      </trkpt>
      <trkpt lat="45.41879" lon="6.02398">
        <ele>408</ele>
        <time>2016-07-12T11:05:55.000Z</time>
      </trkpt>
      <trkpt lat="45.41876" lon="6.02385">
        <ele>406</ele>
        <time>2016-07-12T11:06:07.000Z</time>
      </trkpt>
      <trkpt lat="45.41879" lon="6.02373">
        <ele>408</ele>
        <time>2016-07-12T11:06:20.000Z</time>
      </trkpt>
      <trkpt lat="45.41887" lon="6.02362">
        <ele>407</ele>
        <time>2016-07-12T11:06:34.000Z</time>
      </trkpt>
      <trkpt lat="45.41895" lon="6.02351">
        <ele>407</ele>
        <time>2016-07-12T11:06:47.000Z</time>
      </trkpt>
      <trkpt lat="45.41906" lon="6.02341">
        <ele>407</ele>
        <time>2016-07-12T11:07:04.000Z</time>
      </trkpt>
      <trkpt lat="45.41915" lon="6.02344">
        <ele>407</ele>
        <time>2016-07-12T11:07:17.000Z</time>
      </trkpt>
      <trkpt lat="45.41924" lon="6.02353">
        <ele>407</ele>
        <time>2016-07-12T11:07:28.000Z</time>
      </trkpt>
      <trkpt lat="45.41933" lon="6.02359">
        <ele>406</ele>
        <time>2016-07-12T11:07:50.000Z</time>
      </trkpt>
      <trkpt lat="45.41943" lon="6.02353">
        <ele>404</ele>
        <time>2016-07-12T11:08:07.000Z</time>
      </trkpt>
      <trkpt lat="45.4195" lon="6.02343">
        <ele>400</ele>
        <time>2016-07-12T11:08:16.000Z</time>
      </trkpt>
      <trkpt lat="45.41957" lon="6.02333">
        <ele>397</ele>
        <time>2016-07-12T11:08:25.000Z</time>
      </trkpt>
      <trkpt lat="45.41963" lon="6.02323">
        <ele>397</ele>
        <time>2016-07-12T11:08:33.000Z</time>
      </trkpt>
      <trkpt lat="45.4197" lon="6.02313">
        <ele>395</ele>
        <time>2016-07-12T11:08:42.000Z</time>
      </trkpt>
      <trkpt lat="45.41978" lon="6.02306">
        <ele>393</ele>
        <time>2016-07-12T11:08:55.000Z</time>
      </trkpt>
      <trkpt lat="45.41987" lon="6.02294">
        <ele>394</ele>
        <time>2016-07-12T11:09:08.000Z</time>
      </trkpt>
      <trkpt lat="45.41995" lon="6.02286">
        <ele>394</ele>
        <time>2016-07-12T11:09:17.000Z</time>
      </trkpt>
      <trkpt lat="45.42004" lon="6.02276">
        <ele>393</ele>
        <time>2016-07-12T11:09:27.000Z</time>
      </trkpt>
      <trkpt lat="45.42012" lon="6.02267">
        <ele>395</ele>
        <time>2016-07-12T11:09:37.000Z</time>
      </trkpt>
      <trkpt lat="45.42022" lon="6.02258">
        <ele>392</ele>
        <time>2016-07-12T11:09:47.000Z</time>
      </trkpt>
      <trkpt lat="45.42033" lon="6.02251">
        <ele>393</ele>
        <time>2016-07-12T11:09:59.000Z</time>
      </trkpt>
      <trkpt lat="45.42042" lon="6.02245">
        <ele>393</ele>
        <time>2016-07-12T11:10:10.000Z</time>
      </trkpt>
      <trkpt lat="45.4205" lon="6.0224">
        <ele>392</ele>
        <time>2016-07-12T11:10:19.000Z</time>
      </trkpt>
      <trkpt lat="45.42061" lon="6.02236">
        <ele>386</ele>
        <time>2016-07-12T11:10:41.000Z</time>
      </trkpt>
      <trkpt lat="45.4207" lon="6.02235">
        <ele>386</ele>
        <time>2016-07-12T11:10:55.000Z</time>
      </trkpt>
      <trkpt lat="45.42083" lon="6.02233">
        <ele>383</ele>
        <time>2016-07-12T11:11:07.000Z</time>
      </trkpt>
      <trkpt lat="45.42092" lon="6.02229">
        <ele>382</ele>
        <time>2016-07-12T11:11:16.000Z</time>
      </trkpt>
      <trkpt lat="45.42099" lon="6.02221">
        <ele>382</ele>
        <time>2016-07-12T11:11:28.000Z</time>
      </trkpt>
      <trkpt lat="45.4211" lon="6.02208">
        <ele>379</ele>
        <time>2016-07-12T11:11:41.000Z</time>
      </trkpt>
      <trkpt lat="45.42119" lon="6.02203">
        <ele>379</ele>
        <time>2016-07-12T11:11:50.000Z</time>
      </trkpt>
      <trkpt lat="45.42128" lon="6.02199">
        <ele>381</ele>
        <time>2016-07-12T11:12:00.000Z</time>
      </trkpt>
      <trkpt lat="45.42137" lon="6.02199">
        <ele>383</ele>
        <time>2016-07-12T11:12:10.000Z</time>
      </trkpt>
      <trkpt lat="45.42147" lon="6.02198">
        <ele>384</ele>
        <time>2016-07-12T11:12:20.000Z</time>
      </trkpt>
      <trkpt lat="45.42159" lon="6.02199">
        <ele>386</ele>
        <time>2016-07-12T11:12:31.000Z</time>
      </trkpt>
      <trkpt lat="45.42168" lon="6.022">
        <ele>388</ele>
        <time>2016-07-12T11:12:40.000Z</time>
      </trkpt>
      <trkpt lat="45.42181" lon="6.022">
        <ele>391</ele>
        <time>2016-07-12T11:12:54.000Z</time>
      </trkpt>
      <trkpt lat="45.4219" lon="6.02201">
        <ele>392</ele>
        <time>2016-07-12T11:13:02.000Z</time>
      </trkpt>
      <trkpt lat="45.42199" lon="6.02206">
        <ele>391</ele>
        <time>2016-07-12T11:13:10.000Z</time>
      </trkpt>
      <trkpt lat="45.42207" lon="6.02211">
        <ele>392</ele>
        <time>2016-07-12T11:13:19.000Z</time>
      </trkpt>
      <trkpt lat="45.42217" lon="6.0221">
        <ele>393</ele>
        <time>2016-07-12T11:13:28.000Z</time>
      </trkpt>
      <trkpt lat="45.42226" lon="6.02204">
        <ele>390</ele>
        <time>2016-07-12T11:13:38.000Z</time>
      </trkpt>
      <trkpt lat="45.42233" lon="6.02196">
        <ele>390</ele>
        <time>2016-07-12T11:13:47.000Z</time>
      </trkpt>
      <trkpt lat="45.42247" lon="6.02191">
        <ele>390</ele>
        <time>2016-07-12T11:14:01.000Z</time>
      </trkpt>
      <trkpt lat="45.42255" lon="6.02195">
        <ele>390</ele>
        <time>2016-07-12T11:14:12.000Z</time>
      </trkpt>
      <trkpt lat="45.42264" lon="6.02203">
        <ele>387</ele>
        <time>2016-07-12T11:14:53.000Z</time>
      </trkpt>
      <trkpt lat="45.42275" lon="6.02212">
        <ele>388</ele>
        <time>2016-07-12T11:15:09.000Z</time>
      </trkpt>
      <trkpt lat="45.42282" lon="6.02221">
        <ele>391</ele>
        <time>2016-07-12T11:15:22.000Z</time>
      </trkpt>
      <trkpt lat="45.4229" lon="6.02228">
        <ele>389</ele>
        <time>2016-07-12T11:15:30.000Z</time>
      </trkpt>
      <trkpt lat="45.42298" lon="6.02236">
        <ele>390</ele>
        <time>2016-07-12T11:15:41.000Z</time>
      </trkpt>
      <trkpt lat="45.42309" lon="6.02244">
        <ele>389</ele>
        <time>2016-07-12T11:15:54.000Z</time>
      </trkpt>
      <trkpt lat="45.42319" lon="6.02247">
        <ele>387</ele>
        <time>2016-07-12T11:16:03.000Z</time>
      </trkpt>
      <trkpt lat="45.42329" lon="6.02247">
        <ele>387</ele>
        <time>2016-07-12T11:16:13.000Z</time>
      </trkpt>
      <trkpt lat="45.4234" lon="6.02251">
        <ele>385</ele>
        <time>2016-07-12T11:16:22.000Z</time>
      </trkpt>
      <trkpt lat="45.42349" lon="6.02256">
        <ele>379</ele>
        <time>2016-07-12T11:16:29.000Z</time>
      </trkpt>
      <trkpt lat="45.42359" lon="6.0226">
        <ele>378</ele>
        <time>2016-07-12T11:16:40.000Z</time>
      </trkpt>
      <trkpt lat="45.42369" lon="6.0226">
        <ele>380</ele>
        <time>2016-07-12T11:16:50.000Z</time>
      </trkpt>
      <trkpt lat="45.42378" lon="6.02256">
        <ele>376</ele>
        <time>2016-07-12T11:16:58.000Z</time>
      </trkpt>
      <trkpt lat="45.42387" lon="6.02258">
        <ele>373</ele>
        <time>2016-07-12T11:17:06.000Z</time>
      </trkpt>
      <trkpt lat="45.42395" lon="6.02249">
        <ele>374</ele>
        <time>2016-07-12T11:17:14.000Z</time>
      </trkpt>
      <trkpt lat="45.42403" lon="6.02243">
        <ele>374</ele>
        <time>2016-07-12T11:17:22.000Z</time>
      </trkpt>
      <trkpt lat="45.42415" lon="6.02235">
        <ele>371</ele>
        <time>2016-07-12T11:17:31.000Z</time>
      </trkpt>
      <trkpt lat="45.42426" lon="6.02226">
        <ele>372</ele>
        <time>2016-07-12T11:17:42.000Z</time>
      </trkpt>
      <trkpt lat="45.42434" lon="6.0222">
        <ele>372</ele>
        <time>2016-07-12T11:17:51.000Z</time>
      </trkpt>
      <trkpt lat="45.42442" lon="6.02213">
        <ele>373</ele>
        <time>2016-07-12T11:18:00.000Z</time>
      </trkpt>
      <trkpt lat="45.42451" lon="6.02203">
        <ele>373</ele>
        <time>2016-07-12T11:18:10.000Z</time>
      </trkpt>
      <trkpt lat="45.4246" lon="6.02197">
        <ele>374</ele>
        <time>2016-07-12T11:18:18.000Z</time>
      </trkpt>
      <trkpt lat="45.42471" lon="6.02188">
        <ele>374</ele>
        <time>2016-07-12T11:18:30.000Z</time>
      </trkpt>
      <trkpt lat="45.42479" lon="6.0218">
        <ele>374</ele>
        <time>2016-07-12T11:18:39.000Z</time>
      </trkpt>
      <trkpt lat="45.42487" lon="6.02175">
        <ele>374</ele>
        <time>2016-07-12T11:18:47.000Z</time>
      </trkpt>
      <trkpt lat="45.42498" lon="6.02167">
        <ele>375</ele>
        <time>2016-07-12T11:18:58.000Z</time>
      </trkpt>
      <trkpt lat="45.42506" lon="6.0216">
        <ele>375</ele>
        <time>2016-07-12T11:19:07.000Z</time>
      </trkpt>
      <trkpt lat="45.42517" lon="6.02152">
        <ele>376</ele>
        <time>2016-07-12T11:19:19.000Z</time>
      </trkpt>
      <trkpt lat="45.42527" lon="6.02147">
        <ele>376</ele>
        <time>2016-07-12T11:19:29.000Z</time>
      </trkpt>
      <trkpt lat="45.42539" lon="6.02144">
        <ele>376</ele>
        <time>2016-07-12T11:19:41.000Z</time>
      </trkpt>
      <trkpt lat="45.42547" lon="6.02139">
        <ele>376</ele>
        <time>2016-07-12T11:19:50.000Z</time>
      </trkpt>
      <trkpt lat="45.42556" lon="6.02135">
        <ele>378</ele>
        <time>2016-07-12T11:20:00.000Z</time>
      </trkpt>
      <trkpt lat="45.42569" lon="6.02132">
        <ele>380</ele>
        <time>2016-07-12T11:20:13.000Z</time>
      </trkpt>
      <trkpt lat="45.42579" lon="6.02128">
        <ele>379</ele>
        <time>2016-07-12T11:20:23.000Z</time>
      </trkpt>
      <trkpt lat="45.42588" lon="6.02124">
        <ele>380</ele>
        <time>2016-07-12T11:20:35.000Z</time>
      </trkpt>
      <trkpt lat="45.42599" lon="6.02118">
        <ele>380</ele>
        <time>2016-07-12T11:20:46.000Z</time>
      </trkpt>
      <trkpt lat="45.42604" lon="6.02108">
        <ele>380</ele>
        <time>2016-07-12T11:20:56.000Z</time>
      </trkpt>
      <trkpt lat="45.42606" lon="6.02095">
        <ele>381</ele>
        <time>2016-07-12T11:21:08.000Z</time>
      </trkpt>
      <trkpt lat="45.42605" lon="6.02081">
        <ele>381</ele>
        <time>2016-07-12T11:21:41.000Z</time>
      </trkpt>
      <trkpt lat="45.42606" lon="6.02069">
        <ele>381</ele>
        <time>2016-07-12T11:21:58.000Z</time>
      </trkpt>
      <trkpt lat="45.42606" lon="6.02052">
        <ele>381</ele>
        <time>2016-07-12T11:22:34.000Z</time>
      </trkpt>
      <trkpt lat="45.42608" lon="6.02036">
        <ele>381</ele>
        <time>2016-07-12T11:22:46.000Z</time>
      </trkpt>
      <trkpt lat="45.4261" lon="6.02024">
        <ele>379</ele>
        <time>2016-07-12T11:22:54.000Z</time>
      </trkpt>
      <trkpt lat="45.42611" lon="6.02011">
        <ele>379</ele>
        <time>2016-07-12T11:23:04.000Z</time>
      </trkpt>
      <trkpt lat="45.42611" lon="6.01996">
        <ele>378</ele>
        <time>2016-07-12T11:23:17.000Z</time>
      </trkpt>
      <trkpt lat="45.42607" lon="6.0198">
        <ele>378</ele>
        <time>2016-07-12T11:23:29.000Z</time>
      </trkpt>
      <trkpt lat="45.42606" lon="6.01967">
        <ele>375</ele>
        <time>2016-07-12T11:23:41.000Z</time>
      </trkpt>
      <trkpt lat="45.42602" lon="6.01955">
        <ele>375</ele>
        <time>2016-07-12T11:23:53.000Z</time>
      </trkpt>
      <trkpt lat="45.42601" lon="6.01939">
        <ele>374</ele>
        <time>2016-07-12T11:24:08.000Z</time>
      </trkpt>
      <trkpt lat="45.42595" lon="6.01927">
        <ele>374</ele>
        <time>2016-07-12T11:24:19.000Z</time>
      </trkpt>
      <trkpt lat="45.42589" lon="6.01914">
        <ele>373</ele>
        <time>2016-07-12T11:24:29.000Z</time>
      </trkpt>
      <trkpt lat="45.4258" lon="6.019">
        <ele>374</ele>
        <time>2016-07-12T11:24:42.000Z</time>
      </trkpt>
      <trkpt lat="45.42577" lon="6.01886">
        <ele>371</ele>
        <time>2016-07-12T11:24:53.000Z</time>
      </trkpt>
      <trkpt lat="45.42568" lon="6.01875">
        <ele>368</ele>
        <time>2016-07-12T11:25:06.000Z</time>
      </trkpt>
      <trkpt lat="45.42559" lon="6.01865">
        <ele>370</ele>
        <time>2016-07-12T11:25:17.000Z</time>
      </trkpt>
      <trkpt lat="45.42565" lon="6.01852">
        <ele>370</ele>
        <time>2016-07-12T11:25:29.000Z</time>
      </trkpt>
      <trkpt lat="45.4256" lon="6.01837">
        <ele>369</ele>
        <time>2016-07-12T11:25:38.000Z</time>
      </trkpt>
      <trkpt lat="45.42558" lon="6.01824">
        <ele>368</ele>
        <time>2016-07-12T11:25:46.000Z</time>
      </trkpt>
      <trkpt lat="45.42551" lon="6.01815">
        <ele>365</ele>
        <time>2016-07-12T11:25:53.000Z</time>
      </trkpt>
      <trkpt lat="45.42547" lon="6.01803">
        <ele>363</ele>
        <time>2016-07-12T11:26:02.000Z</time>
      </trkpt>
      <trkpt lat="45.42548" lon="6.0179">
        <ele>360</ele>
        <time>2016-07-12T11:26:26.000Z</time>
      </trkpt>
      <trkpt lat="45.42549" lon="6.01777">
        <ele>359</ele>
        <time>2016-07-12T11:26:33.000Z</time>
      </trkpt>
      <trkpt lat="45.42549" lon="6.01761">
        <ele>359</ele>
        <time>2016-07-12T11:26:44.000Z</time>
      </trkpt>
      <trkpt lat="45.42543" lon="6.0175">
        <ele>357</ele>
        <time>2016-07-12T11:26:53.000Z</time>
      </trkpt>
      <trkpt lat="45.42537" lon="6.01739">
        <ele>360</ele>
        <time>2016-07-12T11:27:06.000Z</time>
      </trkpt>
      <trkpt lat="45.42528" lon="6.01733">
        <ele>357</ele>
        <time>2016-07-12T11:27:12.000Z</time>
      </trkpt>
      <trkpt lat="45.4251" lon="6.01723">
        <ele>354</ele>
        <time>2016-07-12T11:27:26.000Z</time>
      </trkpt>
      <trkpt lat="45.42502" lon="6.01712">
        <ele>354</ele>
        <time>2016-07-12T11:27:36.000Z</time>
      </trkpt>
      <trkpt lat="45.42494" lon="6.01701">
        <ele>354</ele>
        <time>2016-07-12T11:27:48.000Z</time>
      </trkpt>
      <trkpt lat="45.42492" lon="6.01687">
        <ele>353</ele>
        <time>2016-07-12T11:27:58.000Z</time>
      </trkpt>
      <trkpt lat="45.42501" lon="6.01679">
        <ele>350</ele>
        <time>2016-07-12T11:28:05.000Z</time>
      </trkpt>
      <trkpt lat="45.42512" lon="6.0168">
        <ele>352</ele>
        <time>2016-07-12T11:28:18.000Z</time>
      </trkpt>
      <trkpt lat="45.4252" lon="6.01688">
        <ele>348</ele>
        <time>2016-07-12T11:28:28.000Z</time>
      </trkpt>
      <trkpt lat="45.42529" lon="6.01695">
        <ele>343</ele>
        <time>2016-07-12T11:28:39.000Z</time>
      </trkpt>
      <trkpt lat="45.42537" lon="6.01698">
        <ele>341</ele>
        <time>2016-07-12T11:28:53.000Z</time>
      </trkpt>
      <trkpt lat="45.42547" lon="6.01698">
        <ele>344</ele>
        <time>2016-07-12T11:28:58.000Z</time>
      </trkpt>
      <trkpt lat="45.42558" lon="6.01696">
        <ele>342</ele>
        <time>2016-07-12T11:29:06.000Z</time>
      </trkpt>
      <trkpt lat="45.42565" lon="6.01682">
        <ele>336</ele>
        <time>2016-07-12T11:29:24.000Z</time>
      </trkpt>
      <trkpt lat="45.42564" lon="6.01668">
        <ele>334</ele>
        <time>2016-07-12T11:29:34.000Z</time>
      </trkpt>
      <trkpt lat="45.42563" lon="6.01653">
        <ele>333</ele>
        <time>2016-07-12T11:29:50.000Z</time>
      </trkpt>
      <trkpt lat="45.42567" lon="6.0164">
        <ele>331</ele>
        <time>2016-07-12T11:30:30.000Z</time>
      </trkpt>
      <trkpt lat="45.4256" lon="6.01629">
        <ele>330</ele>
        <time>2016-07-12T11:30:44.000Z</time>
      </trkpt>
      <trkpt lat="45.42551" lon="6.0162">
        <ele>331</ele>
        <time>2016-07-12T11:30:55.000Z</time>
      </trkpt>
      <trkpt lat="45.4254" lon="6.01612">
        <ele>333</ele>
        <time>2016-07-12T11:31:09.000Z</time>
      </trkpt>
      <trkpt lat="45.42531" lon="6.01604">
        <ele>333</ele>
        <time>2016-07-12T11:31:20.000Z</time>
      </trkpt>
      <trkpt lat="45.42525" lon="6.01594">
        <ele>332</ele>
        <time>2016-07-12T11:31:29.000Z</time>
      </trkpt>
      <trkpt lat="45.42515" lon="6.01586">
        <ele>332</ele>
        <time>2016-07-12T11:31:40.000Z</time>
      </trkpt>
      <trkpt lat="45.42506" lon="6.01577">
        <ele>331</ele>
        <time>2016-07-12T11:31:50.000Z</time>
      </trkpt>
      <trkpt lat="45.42496" lon="6.01569">
        <ele>331</ele>
        <time>2016-07-12T11:32:01.000Z</time>
      </trkpt>
      <trkpt lat="45.42487" lon="6.01562">
        <ele>333</ele>
        <time>2016-07-12T11:32:10.000Z</time>
      </trkpt>
      <trkpt lat="45.42479" lon="6.01554">
        <ele>331</ele>
        <time>2016-07-12T11:32:18.000Z</time>
      </trkpt>
      <trkpt lat="45.42469" lon="6.01547">
        <ele>331</ele>
        <time>2016-07-12T11:32:27.000Z</time>
      </trkpt>
      <trkpt lat="45.42462" lon="6.0154">
        <ele>332</ele>
        <time>2016-07-12T11:32:35.000Z</time>
      </trkpt>
      <trkpt lat="45.42453" lon="6.01533">
        <ele>332</ele>
        <time>2016-07-12T11:32:44.000Z</time>
      </trkpt>
      <trkpt lat="45.42445" lon="6.01525">
        <ele>332</ele>
        <time>2016-07-12T11:32:53.000Z</time>
      </trkpt>
      <trkpt lat="45.42437" lon="6.01519">
        <ele>332</ele>
        <time>2016-07-12T11:33:01.000Z</time>
      </trkpt>
      <trkpt lat="45.42428" lon="6.01511">
        <ele>333</ele>
        <time>2016-07-12T11:33:10.000Z</time>
      </trkpt>
      <trkpt lat="45.42419" lon="6.01505">
        <ele>332</ele>
        <time>2016-07-12T11:33:19.000Z</time>
      </trkpt>
      <trkpt lat="45.42409" lon="6.01494">
        <ele>332</ele>
        <time>2016-07-12T11:33:31.000Z</time>
      </trkpt>
      <trkpt lat="45.42399" lon="6.01486">
        <ele>333</ele>
        <time>2016-07-12T11:33:41.000Z</time>
      </trkpt>
      <trkpt lat="45.42386" lon="6.01484">
        <ele>337</ele>
        <time>2016-07-12T11:33:53.000Z</time>
      </trkpt>
      <trkpt lat="45.42374" lon="6.01483">
        <ele>337</ele>
        <time>2016-07-12T11:34:05.000Z</time>
      </trkpt>
      <trkpt lat="45.42365" lon="6.01484">
        <ele>332</ele>
        <time>2016-07-12T11:36:03.000Z</time>
      </trkpt>
      <trkpt lat="45.42372" lon="6.01494">
        <ele>334</ele>
        <time>2016-07-12T11:41:32.000Z</time>
      </trkpt>
      <trkpt lat="45.42371" lon="6.01481">
        <ele>326</ele>
        <time>2016-07-12T11:41:47.000Z</time>
      </trkpt>
    </trkseg>
  </trk>
</gpx>